Observation data for Mertzon on 05/28/2019      Previous  Date  Next       Current Mesonet Observations  Soil Data  Daily Summary Page  Observations in Plain Language
KME1 280500Z 17011G16KT 25/18 A2974 RMK A01 T02460183  RH  068%=      5-min Rain = 0
KME1 280501Z 16014G19KT 25/18 A2974 RMK A01 T02450184  RH  069%=      5-min Rain = 0
KME1 280502Z 17016KT 24/18 A2974 RMK A01 T02440183  RH  069%=      5-min Rain = 0
KME1 280503Z 17012KT 24/18 A2974 RMK A01 T02440183  RH  068%=      5-min Rain = 0
KME1 280504Z 16014KT 24/18 A2974 RMK A01 T02440183  RH  069%=      5-min Rain = 0
KME1 280505Z 17014KT 24/18 A2974 RMK A01 T02440183  RH  069%=      5-min Rain = 0
KME1 280506Z 17014KT 24/18 A2974 RMK A01 T02440183  RH  069%=      5-min Rain = 0
KME1 280507Z 17011G16KT 24/18 A2974 RMK A01 T02440183  RH  069%=      5-min Rain = 0
KME1 280508Z 17012KT 24/18 A2974 RMK A01 T02440183  RH  069%=      5-min Rain = 0
KME1 280509Z 18010KT 24/18 A2974 RMK A01 T02430183  RH  069%=      5-min Rain = 0
KME1 280510Z 17016KT 24/18 A2974 RMK A01 T02430183  RH  069%=      5-min Rain = 0
KME1 280511Z 17014KT 24/18 A2974 RMK A01 T02430182  RH  069%=      5-min Rain = 0
KME1 280512Z 17014G20KT 24/18 A2974 RMK A01 T02430182  RH  069%=      5-min Rain = 0
KME1 280513Z 17014G19KT 24/18 A2974 RMK A01 T02430182  RH  069%=      5-min Rain = 0
KME1 280514Z 17013G18KT 24/18 A2974 RMK A01 T02440182  RH  069%=      5-min Rain = 0
KME1 280515Z 18014KT 24/18 A2974 RMK A01 T02430183  RH  069%=      5-min Rain = 0
KME1 280516Z 17015KT 24/18 A2974 RMK A01 T02430182  RH  069%=      5-min Rain = 0
KME1 280517Z 17016KT 24/18 A2974 RMK A01 T02430182  RH  069%=      5-min Rain = 0
KME1 280518Z 18012KT 24/18 A2974 RMK A01 T02430182  RH  069%=      5-min Rain = 0
KME1 280519Z 17012KT 24/18 A2974 RMK A01 T02430183  RH  069%=      5-min Rain = 0
KME1 280520Z 17014G19KT 24/18 A2974 RMK A01 T02420182  RH  069%=      5-min Rain = 0
KME1 280521Z 18013KT 24/18 A2974 RMK A01 T02420182  RH  069%=      5-min Rain = 0
KME1 280522Z 17015KT 24/18 A2974 RMK A01 T02420182  RH  069%=      5-min Rain = 0
KME1 280523Z 17015G24KT 24/18 A2974 RMK A01 T02430182  RH  069%=      5-min Rain = 0
KME1 280524Z 17017KT 24/18 A2974 RMK A01 T02430182  RH  069%=      5-min Rain = 0
KME1 280525Z 17015KT 24/18 A2974 RMK A01 T02440182  RH  068%=      5-min Rain = 0
KME1 280526Z 17013KT 24/18 A2974 RMK A01 T02440182  RH  069%=      5-min Rain = 0
KME1 280527Z 17015KT 24/18 A2973 RMK A01 T02420182  RH  069%=      5-min Rain = 0
KME1 280528Z 17014KT 24/18 A2973 RMK A01 T02420182  RH  069%=      5-min Rain = 0
KME1 280529Z 16014KT 24/18 A2973 RMK A01 T02420182  RH  069%=      5-min Rain = 0
KME1 280530Z 17016G21KT 24/18 A2973 RMK A01 T02420182  RH  069%=      5-min Rain = 0
KME1 280531Z 17015G20KT 24/18 A2973 RMK A01 T02420182  RH  069%=      5-min Rain = 0
KME1 280532Z 17018KT 24/18 A2973 RMK A01 T02420182  RH  069%=      5-min Rain = 0
KME1 280533Z 18014G19KT 24/18 A2973 RMK A01 T02420182  RH  069%=      5-min Rain = 0
KME1 280534Z 17016KT 24/18 A2973 RMK A01 T02420182  RH  069%=      5-min Rain = 0
KME1 280535Z 17015KT 24/18 A2973 RMK A01 T02420182  RH  069%=      5-min Rain = 0
KME1 280536Z 17015G20KT 24/18 A2973 RMK A01 T02420182  RH  069%=      5-min Rain = 0
KME1 280537Z 17017KT 24/18 A2973 RMK A01 T02420182  RH  069%=      5-min Rain = 0
KME1 280538Z 17013KT 24/18 A2973 RMK A01 T02420182  RH  069%=      5-min Rain = 0
KME1 280539Z 17014G19KT 24/18 A2973 RMK A01 T02420183  RH  070%=      5-min Rain = 0
KME1 280540Z 17013KT 24/18 A2973 RMK A01 T02410182  RH  070%=      5-min Rain = 0
KME1 280541Z 17013G20KT 24/18 A2973 RMK A01 T02400183  RH  070%=      5-min Rain = 0
KME1 280542Z 17014KT 24/18 A2973 RMK A01 T02400183  RH  070%=      5-min Rain = 0
KME1 280543Z 16014KT 24/18 A2973 RMK A01 T02400183  RH  070%=      5-min Rain = 0
KME1 280544Z 17011KT 24/18 A2973 RMK A01 T02390183  RH  071%=      5-min Rain = 0
KME1 280545Z 17013G18KT 24/18 A2973 RMK A01 T02380183  RH  071%=      5-min Rain = 0
KME1 280546Z 17015KT 24/18 A2973 RMK A01 T02380183  RH  071%=      5-min Rain = 0
KME1 280547Z 18014KT 24/18 A2973 RMK A01 T02380182  RH  071%=      5-min Rain = 0
KME1 280548Z 17014G20KT 24/18 A2973 RMK A01 T02380183  RH  071%=      5-min Rain = 0
KME1 280549Z 17015KT 24/18 A2973 RMK A01 T02380183  RH  071%=      5-min Rain = 0
KME1 280550Z 17014G19KT 24/18 A2973 RMK A01 T02380183  RH  071%=      5-min Rain = 0
KME1 280551Z 17015G20KT 24/18 A2973 RMK A01 T02380183  RH  071%=      5-min Rain = 0
KME1 280552Z 17013KT 24/18 A2973 RMK A01 T02380183  RH  071%=      5-min Rain = 0
KME1 280553Z 17012G17KT 24/18 A2973 RMK A01 T02390184  RH  071%=      5-min Rain = 0
KME1 280554Z 17015G21KT 24/18 A2973 RMK A01 T02380183  RH  071%=      5-min Rain = 0
KME1 280555Z 17016KT 24/18 A2973 RMK A01 T02380183  RH  071%=      5-min Rain = 0
KME1 280556Z 17013KT 24/18 A2973 RMK A01 T02380183  RH  071%=      5-min Rain = 0
KME1 280557Z 17013KT 24/18 A2973 RMK A01 T02380184  RH  072%=      5-min Rain = 0
KME1 280558Z 17013KT 24/18 A2973 RMK A01 T02370184  RH  072%=      5-min Rain = 0
KME1 280559Z 17012KT 24/18 A2973 RMK A01 T02370184  RH  072%=      5-min Rain = 0
KME1 280600Z 18013KT 24/18 A2973 RMK A01 T02370184  RH  072%=      5-min Rain = 0
KME1 280601Z 18016KT 24/18 A2973 RMK A01 T02360184  RH  073%=      5-min Rain = 0
KME1 280602Z 17013KT 24/18 A2973 RMK A01 T02360184  RH  072%=      5-min Rain = 0
KME1 280603Z 17012KT 24/19 A2973 RMK A01 T02370185  RH  073%=      5-min Rain = 0
KME1 280604Z 18015KT 24/19 A2973 RMK A01 T02370185  RH  073%=      5-min Rain = 0
KME1 280605Z 18014KT 24/19 A2973 RMK A01 T02360185  RH  073%=      5-min Rain = 0
KME1 280606Z 17016KT 24/19 A2973 RMK A01 T02360185  RH  073%=      5-min Rain = 0
KME1 280607Z 18012KT 24/19 A2973 RMK A01 T02360185  RH  073%=      5-min Rain = 0
KME1 280608Z 17014KT 24/19 A2973 RMK A01 T02350186  RH  074%=      5-min Rain = 0
KME1 280609Z 18014KT 24/19 A2973 RMK A01 T02350186  RH  074%=      5-min Rain = 0
KME1 280610Z 17015G21KT 24/19 A2973 RMK A01 T02350186  RH  074%=      5-min Rain = 0
KME1 280611Z 18011KT 24/19 A2973 RMK A01 T02350186  RH  074%=      5-min Rain = 0
KME1 280612Z 18014KT 23/19 A2973 RMK A01 T02340187  RH  075%=      5-min Rain = 0
KME1 280613Z 17014G21KT 23/19 A2973 RMK A01 T02340187  RH  075%=      5-min Rain = 0
KME1 280614Z 17016KT 23/19 A2973 RMK A01 T02340187  RH  075%=      5-min Rain = 0
KME1 280615Z 17014G19KT 23/19 A2973 RMK A01 T02340187  RH  075%=      5-min Rain = 0
KME1 280616Z 17016KT 23/19 A2973 RMK A01 T02340187  RH  075%=      5-min Rain = 0
KME1 280617Z 18014G20KT 23/19 A2973 RMK A01 T02340187  RH  075%=      5-min Rain = 0
KME1 280618Z 18013KT 23/19 A2973 RMK A01 T02340188  RH  075%=      5-min Rain = 0
KME1 280619Z 17014G19KT 23/19 A2973 RMK A01 T02340188  RH  075%=      5-min Rain = 0
KME1 280620Z 18017G23KT 23/19 A2973 RMK A01 T02340188  RH  075%=      5-min Rain = 0
KME1 280621Z 17017KT 23/19 A2972 RMK A01 T02340188  RH  075%=      5-min Rain = 0
KME1 280622Z 17014G20KT 23/19 A2972 RMK A01 T02340188  RH  075%=      5-min Rain = 0
KME1 280623Z 17012KT 23/19 A2972 RMK A01 T02340189  RH  076%=      5-min Rain = 0
KME1 280624Z 17014KT 23/19 A2972 RMK A01 T02330189  RH  076%=      5-min Rain = 0
KME1 280625Z 17015KT 23/19 A2972 RMK A01 T02320189  RH  076%=      5-min Rain = 0
KME1 280626Z 17013KT 23/19 A2972 RMK A01 T02320188  RH  076%=      5-min Rain = 0
KME1 280627Z 18012G17KT 23/19 A2972 RMK A01 T02320189  RH  077%=      5-min Rain = 0
KME1 280628Z 17017G22KT 23/19 A2972 RMK A01 T02320189  RH  077%=      5-min Rain = 0
KME1 280629Z 17015G20KT 23/19 A2972 RMK A01 T02320189  RH  077%=      5-min Rain = 0
KME1 280630Z 17016KT 23/19 A2972 RMK A01 T02310189  RH  077%=      5-min Rain = 0
KME1 280631Z 17016G21KT 23/19 A2972 RMK A01 T02320189  RH  077%=      5-min Rain = 0
KME1 280632Z 17016G21KT 23/19 A2972 RMK A01 T02310189  RH  077%=      5-min Rain = 0
KME1 280633Z 17015KT 23/19 A2972 RMK A01 T02320189  RH  077%=      5-min Rain = 0
KME1 280634Z 17018G24KT 23/19 A2972 RMK A01 T02320190  RH  077%=      5-min Rain = 0
KME1 280635Z 17018KT 23/19 A2972 RMK A01 T02320190  RH  077%=      5-min Rain = 0
KME1 280636Z 17015G20KT 23/19 A2972 RMK A01 T02320190  RH  077%=      5-min Rain = 0
KME1 280637Z 17017G22KT 23/19 A2971 RMK A01 T02320191  RH  078%=      5-min Rain = 0
KME1 280638Z 17018G24KT 23/19 A2971 RMK A01 T02320191  RH  078%=      5-min Rain = 0
KME1 280639Z 17018G25KT 23/19 A2971 RMK A01 T02320191  RH  078%=      5-min Rain = 0
KME1 280640Z 17017G22KT 23/19 A2971 RMK A01 T02320191  RH  078%=      5-min Rain = 0
KME1 280641Z 17017KT 23/19 A2971 RMK A01 T02320191  RH  078%=      5-min Rain = 0
KME1 280642Z 17017G22KT 23/19 A2971 RMK A01 T02320191  RH  078%=      5-min Rain = 0
KME1 280643Z 17014KT 23/19 A2971 RMK A01 T02310192  RH  078%=      5-min Rain = 0
KME1 280644Z 17015KT 23/19 A2971 RMK A01 T02310191  RH  079%=      5-min Rain = 0
KME1 280645Z 17016KT 23/19 A2971 RMK A01 T02300191  RH  079%=      5-min Rain = 0
KME1 280646Z 17016KT 23/19 A2971 RMK A01 T02300192  RH  079%=      5-min Rain = 0
KME1 280647Z 17016G22KT 23/19 A2971 RMK A01 T02290192  RH  079%=      5-min Rain = 0
KME1 280648Z 17017G23KT 23/19 A2971 RMK A01 T02290193  RH  080%=      5-min Rain = 0
KME1 280649Z 17018G27KT 23/19 A2971 RMK A01 T02300193  RH  080%=      5-min Rain = 0
KME1 280650Z 17015G21KT 23/19 A2971 RMK A01 T02300193  RH  080%=      5-min Rain = 0
KME1 280651Z 17014KT 23/19 A2971 RMK A01 T02300193  RH  080%=      5-min Rain = 0
KME1 280652Z 17013G18KT 23/19 A297 RMK A01 T02290194  RH  080%=      5-min Rain = 0
KME1 280653Z 17013G18KT 23/19 A297 RMK A01 T02280194  RH  081%=      5-min Rain = 0
KME1 280654Z 17020KT 23/19 A297 RMK A01 T02280194  RH  081%=      5-min Rain = 0
KME1 280655Z 17019KT 23/19 A297 RMK A01 T02280194  RH  081%=      5-min Rain = 0
KME1 280656Z 17017KT 23/20 A297 RMK A01 T02290195  RH  081%=      5-min Rain = 0
KME1 280657Z 17017G22KT 23/20 A297 RMK A01 T02290195  RH  081%=      5-min Rain = 0
KME1 280658Z 17014KT 23/20 A297 RMK A01 T02290195  RH  081%=      5-min Rain = 0
KME1 280659Z 17016KT 23/20 A297 RMK A01 T02280196  RH  082%=      5-min Rain = 0
KME1 280700Z 17017KT 23/20 A297 RMK A01 T02280196  RH  082%=      5-min Rain = 0
KME1 280701Z 17016G23KT 23/20 A297 RMK A01 T02280197  RH  083%=      5-min Rain = 0
KME1 280702Z 17018KT 23/20 A297 RMK A01 T02280197  RH  083%=      5-min Rain = 0
KME1 280703Z 17015KT 23/20 A297 RMK A01 T02280197  RH  083%=      5-min Rain = 0
KME1 280704Z 17016G22KT 23/20 A2969 RMK A01 T02280197  RH  083%=      5-min Rain = 0
KME1 280705Z 17016G21KT 23/20 A2969 RMK A01 T02280198  RH  083%=      5-min Rain = 0
KME1 280706Z 16015KT 23/20 A2969 RMK A01 T02280198  RH  083%=      5-min Rain = 0
KME1 280707Z 17014KT 23/20 A2969 RMK A01 T02270199  RH  084%=      5-min Rain = 0
KME1 280708Z 17016KT 23/20 A2969 RMK A01 T02270199  RH  084%=      5-min Rain = 0
KME1 280709Z 16017KT 23/20 A2969 RMK A01 T02260199  RH  085%=      5-min Rain = 0
KME1 280710Z 17015KT 23/20 A2969 RMK A01 T02270200  RH  085%=      5-min Rain = 0
KME1 280711Z 17017KT 23/20 A2969 RMK A01 T02270200  RH  085%=      5-min Rain = 0
KME1 280712Z 18016G21KT 23/20 A2969 RMK A01 T02270200  RH  085%=      5-min Rain = 0
KME1 280713Z 17017G23KT 23/20 A2969 RMK A01 T02280202  RH  085%=      5-min Rain = 0
KME1 280714Z 17018KT 23/20 A2969 RMK A01 T02270201  RH  085%=      5-min Rain = 0
KME1 280715Z 17016G22KT 23/20 A2969 RMK A01 T02270201  RH  085%=      5-min Rain = 0
KME1 280716Z 17018KT 23/20 A2969 RMK A01 T02280202  RH  085%=      5-min Rain = 0
KME1 280717Z 17014KT 23/20 A2969 RMK A01 T02280203  RH  086%=      5-min Rain = 0
KME1 280718Z 17016G22KT 23/20 A297 RMK A01 T02270203  RH  086%=      5-min Rain = 0
KME1 280719Z 18014G19KT 23/20 A297 RMK A01 T02270204  RH  087%=      5-min Rain = 0
KME1 280720Z 18015G20KT 23/20 A297 RMK A01 T02270204  RH  087%=      5-min Rain = 0
KME1 280721Z 17015KT 23/20 A297 RMK A01 T02270204  RH  087%=      5-min Rain = 0
KME1 280722Z 18017KT 23/21 A2969 RMK A01 T02270205  RH  087%=      5-min Rain = 0
KME1 280723Z 17018G23KT 23/21 A2969 RMK A01 T02270205  RH  087%=      5-min Rain = 0
KME1 280724Z 17019G24KT 23/21 A2969 RMK A01 T02280205  RH  087%=      5-min Rain = 0
KME1 280725Z 17016KT 23/21 A2969 RMK A01 T02280205  RH  087%=      5-min Rain = 0
KME1 280726Z 17018G23KT 23/21 A2969 RMK A01 T02280206  RH  087%=      5-min Rain = 0
KME1 280727Z 17020G27KT 23/21 A2969 RMK A01 T02280207  RH  088%=      5-min Rain = 0
KME1 280728Z 17019G27KT 23/21 A2969 RMK A01 T02280206  RH  087%=      5-min Rain = 0
KME1 280729Z 17014G20KT 23/21 A2969 RMK A01 T02280206  RH  087%=      5-min Rain = 0
KME1 280730Z 17018G23KT 23/21 A2969 RMK A01 T02280207  RH  088%=      5-min Rain = 0
KME1 280731Z 17019G24KT 23/21 A2969 RMK A01 T02280207  RH  088%=      5-min Rain = 0
KME1 280732Z 17021G28KT 23/21 A2969 RMK A01 T02290207  RH  088%=      5-min Rain = 0
KME1 280733Z 17015G20KT 23/21 A2969 RMK A01 T02290207  RH  087%=      5-min Rain = 0
KME1 280734Z 17017G24KT 23/21 A2969 RMK A01 T02290207  RH  087%=      5-min Rain = 0
KME1 280735Z 17019KT 23/21 A2969 RMK A01 T02290208  RH  088%=      5-min Rain = 0
KME1 280736Z 17017KT 23/21 A2969 RMK A01 T02290208  RH  088%=      5-min Rain = 0
KME1 280737Z 17020G25KT 23/21 A2969 RMK A01 T02290208  RH  088%=      5-min Rain = 0
KME1 280738Z 17021KT 23/21 A2969 RMK A01 T02290208  RH  088%=      5-min Rain = 0
KME1 280739Z 17020G26KT 23/21 A2969 RMK A01 T02300208  RH  088%=      5-min Rain = 0
KME1 280740Z 17021G30KT 23/21 A2969 RMK A01 T02300208  RH  088%=      5-min Rain = 0
KME1 280741Z 18021G27KT 23/21 A2969 RMK A01 T02300208  RH  088%=      5-min Rain = 0
KME1 280742Z 17016G21KT 23/21 A2969 RMK A01 T02310209  RH  087%=      5-min Rain = 0
KME1 280743Z 17018KT 23/21 A2969 RMK A01 T02300209  RH  088%=      5-min Rain = 0
KME1 280744Z 18019G25KT 23/21 A2969 RMK A01 T02300209  RH  088%=      5-min Rain = 0
KME1 280745Z 17018KT 23/21 A2969 RMK A01 T02300210  RH  088%=      5-min Rain = 0
KME1 280746Z 17016G22KT 23/21 A2969 RMK A01 T02300210  RH  089%=      5-min Rain = 0
KME1 280747Z 17016G22KT 23/21 A2969 RMK A01 T02290210  RH  089%=      5-min Rain = 0
KME1 280748Z 18014KT 23/21 A2969 RMK A01 T02290210  RH  089%=      5-min Rain = 0
KME1 280749Z 17018G24KT 23/21 A2969 RMK A01 T02290211  RH  090%=      5-min Rain = 0
KME1 280750Z 17020G26KT 23/21 A2969 RMK A01 T02290211  RH  089%=      5-min Rain = 0
KME1 280751Z 17022G27KT 23/21 A2969 RMK A01 T02290210  RH  089%=      5-min Rain = 0
KME1 280752Z 18021G26KT 23/21 A2969 RMK A01 T02300209  RH  088%=      5-min Rain = 0
KME1 280753Z 17018KT 23/21 A2969 RMK A01 T02310209  RH  088%=      5-min Rain = 0
KME1 280754Z 17019G24KT 23/21 A2969 RMK A01 T02300210  RH  088%=      5-min Rain = 0
KME1 280755Z 18018G23KT 23/21 A2969 RMK A01 T02310210  RH  088%=      5-min Rain = 0
KME1 280756Z 17024KT 23/21 A2969 RMK A01 T02310210  RH  088%=      5-min Rain = 0
KME1 280757Z 17019KT 23/21 A2969 RMK A01 T02310209  RH  088%=      5-min Rain = 0
KME1 280758Z 17023G29KT 23/21 A2969 RMK A01 T02310209  RH  087%=      5-min Rain = 0
KME1 280759Z 17018G26KT 23/21 A2969 RMK A01 T02310209  RH  087%=      5-min Rain = 0
KME1 280800Z 17020KT 23/21 A2969 RMK A01 T02320209  RH  087%=      5-min Rain = 0
KME1 280801Z 18019G24KT 23/21 A2969 RMK A01 T02320210  RH  087%=      5-min Rain = 0
KME1 280802Z 18021KT 23/21 A2969 RMK A01 T02320209  RH  087%=      5-min Rain = 0
KME1 280803Z 17020KT 23/21 A2969 RMK A01 T02310209  RH  087%=      5-min Rain = 0
KME1 280804Z 17021G26KT 23/21 A2969 RMK A01 T02310210  RH  087%=      5-min Rain = 0
KME1 280805Z 17019G24KT 23/21 A2969 RMK A01 T02320210  RH  088%=      5-min Rain = 0
KME1 280806Z 17023G28KT 23/21 A2969 RMK A01 T02310210  RH  088%=      5-min Rain = 0
KME1 280807Z 18017G22KT 23/21 A2969 RMK A01 T02310209  RH  087%=      5-min Rain = 0
KME1 280808Z 17015KT 23/21 A2969 RMK A01 T02310210  RH  088%=      5-min Rain = 0
KME1 280809Z 17019G25KT 23/21 A2969 RMK A01 T02310210  RH  088%=      5-min Rain = 0
KME1 280810Z 17019G26KT 23/21 A2969 RMK A01 T02310210  RH  088%=      5-min Rain = 0
KME1 280811Z 18019KT 23/21 A2969 RMK A01 T02310210  RH  088%=      5-min Rain = 0
KME1 280812Z 18017G22KT 23/21 A2969 RMK A01 T02310210  RH  088%=      5-min Rain = 0
KME1 280813Z 17017G23KT 23/21 A2969 RMK A01 T02300209  RH  088%=      5-min Rain = 0
KME1 280814Z 18017G23KT 23/21 A2969 RMK A01 T02310210  RH  088%=      5-min Rain = 0
KME1 280815Z 17023G28KT 23/21 A2969 RMK A01 T02300209  RH  088%=      5-min Rain = 0
KME1 280816Z 18022G27KT 23/21 A2969 RMK A01 T02310209  RH  087%=      5-min Rain = 0
KME1 280817Z 18022KT 23/21 A2969 RMK A01 T02310208  RH  087%=      5-min Rain = 0
KME1 280818Z 17019G24KT 23/21 A2969 RMK A01 T02310208  RH  087%=      5-min Rain = 0
KME1 280819Z 18018G24KT 23/21 A2969 RMK A01 T02320208  RH  087%=      5-min Rain = 0
KME1 280820Z 17018G24KT 23/21 A2969 RMK A01 T02310208  RH  087%=      5-min Rain = 0
KME1 280821Z 17017G22KT 23/21 A2969 RMK A01 T02310208  RH  087%=      5-min Rain = 0
KME1 280822Z 18016KT 23/21 A2969 RMK A01 T02310208  RH  087%=      5-min Rain = 0
KME1 280823Z 18020G25KT 23/21 A2969 RMK A01 T02310208  RH  087%=      5-min Rain = 0
KME1 280824Z 18020G28KT 23/21 A2969 RMK A01 T02310207  RH  086%=      5-min Rain = 0
KME1 280825Z 17020G25KT 23/21 A2969 RMK A01 T02310206  RH  086%=      5-min Rain = 0
KME1 280826Z 17020KT 23/21 A2969 RMK A01 T02320206  RH  086%=      5-min Rain = 0
KME1 280827Z 17019G25KT 23/21 A297 RMK A01 T02320206  RH  085%=      5-min Rain = 0
KME1 280828Z 18019G27KT 23/21 A297 RMK A01 T02320206  RH  085%=      5-min Rain = 0
KME1 280829Z 18017G23KT 23/21 A297 RMK A01 T02320206  RH  085%=      5-min Rain = 0
KME1 280830Z 17019KT 23/21 A297 RMK A01 T02320207  RH  086%=      5-min Rain = 0
KME1 280831Z 18017KT 23/21 A297 RMK A01 T02310206  RH  086%=      5-min Rain = 0
KME1 280832Z 18020G25KT 23/21 A2969 RMK A01 T02310206  RH  086%=      5-min Rain = 0
KME1 280833Z 17021KT 23/21 A297 RMK A01 T02310206  RH  085%=      5-min Rain = 0
KME1 280834Z 18020G26KT 23/21 A297 RMK A01 T02320205  RH  085%=      5-min Rain = 0
KME1 280835Z 18018G23KT 23/21 A297 RMK A01 T02320205  RH  085%=      5-min Rain = 0
KME1 280836Z 18019G24KT 23/21 A297 RMK A01 T02320205  RH  085%=      5-min Rain = 0
KME1 280837Z 18020KT 23/21 A297 RMK A01 T02320205  RH  085%=      5-min Rain = 0
KME1 280838Z 18019G25KT 23/21 A297 RMK A01 T02320205  RH  085%=      5-min Rain = 0
KME1 280839Z 18022KT 23/21 A297 RMK A01 T02320205  RH  085%=      5-min Rain = 0
KME1 280840Z 18018G29KT 23/20 A297 RMK A01 T02320204  RH  084%=      5-min Rain = 0
KME1 280841Z 18016G21KT 23/20 A297 RMK A01 T02320204  RH  084%=      5-min Rain = 0
KME1 280842Z 18021KT 23/20 A297 RMK A01 T02320204  RH  085%=      5-min Rain = 0
KME1 280843Z 18016G21KT 23/21 A297 RMK A01 T02320205  RH  085%=      5-min Rain = 0
KME1 280844Z 18021G26KT 23/21 A2969 RMK A01 T02320205  RH  085%=      5-min Rain = 0
KME1 280845Z 18020G26KT 23/20 A2969 RMK A01 T02320204  RH  084%=      5-min Rain = 0
KME1 280846Z 18023KT 23/20 A2969 RMK A01 T02320204  RH  084%=      5-min Rain = 0
KME1 280847Z 18017KT 23/20 A2969 RMK A01 T02330204  RH  084%=      5-min Rain = 0
KME1 280848Z 18018G25KT 23/20 A2969 RMK A01 T02320204  RH  084%=      5-min Rain = 0
KME1 280849Z 18015KT 23/20 A2969 RMK A01 T02320204  RH  084%=      5-min Rain = 0
KME1 280850Z 17018G23KT 23/20 A2969 RMK A01 T02310204  RH  085%=      5-min Rain = 0
KME1 280851Z 18019G24KT 23/20 A2969 RMK A01 T02310204  RH  085%=      5-min Rain = 0
KME1 280852Z 18020G25KT 23/20 A2969 RMK A01 T02310204  RH  085%=      5-min Rain = 0
KME1 280853Z 17020KT 23/20 A2969 RMK A01 T02310204  RH  085%=      5-min Rain = 0
KME1 280854Z 17021G29KT 23/20 A2968 RMK A01 T02310203  RH  084%=      5-min Rain = 0
KME1 280855Z 17021G27KT 23/20 A2968 RMK A01 T02320203  RH  084%=      5-min Rain = 0
KME1 280856Z 17018G27KT 23/20 A2968 RMK A01 T02320204  RH  084%=      5-min Rain = 0
KME1 280857Z 17023G28KT 23/20 A2968 RMK A01 T02320204  RH  084%=      5-min Rain = 0
KME1 280858Z 17021KT 23/20 A2968 RMK A01 T02320204  RH  084%=      5-min Rain = 0
KME1 280859Z 18021G26KT 23/20 A2968 RMK A01 T02320204  RH  084%=      5-min Rain = 0
KME1 280900Z 17018G25KT 23/20 A2969 RMK A01 T02320204  RH  084%=      5-min Rain = 0
KME1 280901Z 18020G27KT 23/20 A2969 RMK A01 T02320204  RH  085%=      5-min Rain = 0
KME1 280902Z 19020G33KT 23/20 A2969 RMK A01 T02310204  RH  085%=      5-min Rain = 0
KME1 280903Z 18018KT 23/20 A2969 RMK A01 T02310204  RH  085%=      5-min Rain = 0
KME1 280904Z 18018KT 23/20 A2969 RMK A01 T02310204  RH  085%=      5-min Rain = 0
KME1 280905Z 18021KT 23/20 A2969 RMK A01 T02300204  RH  085%=      5-min Rain = 0
KME1 280906Z 19016G21KT 23/20 A2969 RMK A01 T02300204  RH  085%=      5-min Rain = 0
KME1 280907Z 18022G30KT 23/20 A2969 RMK A01 T02300204  RH  085%=      5-min Rain = 0
KME1 280908Z 18020G25KT 23/20 A2969 RMK A01 T02310204  RH  085%=      5-min Rain = 0
KME1 280909Z 18018KT 23/20 A2969 RMK A01 T02310204  RH  085%=      5-min Rain = 0
KME1 280910Z 18021G27KT 23/20 A2969 RMK A01 T02310204  RH  085%=      5-min Rain = 0
KME1 280911Z 19025KT 23/20 A2969 RMK A01 T02300204  RH  085%=      5-min Rain = 0
KME1 280912Z 18020G26KT 23/20 A2969 RMK A01 T02310204  RH  085%=      5-min Rain = 0
KME1 280913Z 18017G23KT 23/20 A2969 RMK A01 T02310204  RH  085%=      5-min Rain = 0
KME1 280914Z 19019G24KT 23/20 A2969 RMK A01 T02310204  RH  085%=      5-min Rain = 0
KME1 280915Z 18015G21KT 23/20 A2969 RMK A01 T02310204  RH  085%=      5-min Rain = 0
KME1 280916Z 20014KT 23/20 A2969 RMK A01 T02300204  RH  085%=      5-min Rain = 0
KME1 280917Z 19016KT 23/20 A2969 RMK A01 T02300204  RH  086%=      5-min Rain = 0
KME1 280918Z 19019G26KT 23/20 A2969 RMK A01 T02290204  RH  086%=      5-min Rain = 0
KME1 280919Z 19018KT 23/20 A297 RMK A01 T02300204  RH  085%=      5-min Rain = 0
KME1 280920Z 19018G24KT 23/20 A297 RMK A01 T02300204  RH  085%=      5-min Rain = 0
KME1 280921Z 19016KT 23/20 A297 RMK A01 T02300204  RH  085%=      5-min Rain = 0
KME1 280922Z 19017G25KT 23/20 A297 RMK A01 T02300204  RH  085%=      5-min Rain = 0
KME1 280923Z 20017G24KT 23/20 A297 RMK A01 T02300203  RH  085%=      5-min Rain = 0
KME1 280924Z 19015G20KT 23/20 A297 RMK A01 T02300204  RH  085%=      5-min Rain = 0
KME1 280925Z 19016KT 23/20 A297 RMK A01 T02300204  RH  085%=      5-min Rain = 0
KME1 280926Z 19019G25KT 23/20 A297 RMK A01 T02300204  RH  086%=      5-min Rain = 0
KME1 280927Z 19021KT 23/20 A297 RMK A01 T02300204  RH  085%=      5-min Rain = 0
KME1 280928Z 19019G27KT 23/20 A297 RMK A01 T02300203  RH  085%=      5-min Rain = 0
KME1 280929Z 19015G20KT 23/20 A297 RMK A01 T02310204  RH  085%=      5-min Rain = 0
KME1 280930Z 19014G22KT 23/20 A297 RMK A01 T02300204  RH  085%=      5-min Rain = 0
KME1 280931Z 18017KT 23/20 A297 RMK A01 T02300204  RH  085%=      5-min Rain = 0
KME1 280932Z 19019KT 23/20 A297 RMK A01 T02300204  RH  086%=      5-min Rain = 0
KME1 280933Z 19017KT 23/20 A297 RMK A01 T02290204  RH  086%=      5-min Rain = 0
KME1 280934Z 18018G23KT 23/20 A297 RMK A01 T02290204  RH  086%=      5-min Rain = 0
KME1 280935Z 20014G22KT 23/20 A297 RMK A01 T02290204  RH  086%=      5-min Rain = 0
KME1 280936Z 18017G23KT 23/20 A297 RMK A01 T02290204  RH  086%=      5-min Rain = 0
KME1 280937Z 19013KT 23/20 A2971 RMK A01 T02290204  RH  086%=      5-min Rain = 0
KME1 280938Z 19017G23KT 23/21 A2971 RMK A01 T02290205  RH  086%=      5-min Rain = 0
KME1 280939Z 19017G22KT 23/21 A2971 RMK A01 T02290205  RH  086%=      5-min Rain = 0
KME1 280940Z 19018KT 23/21 A2971 RMK A01 T02290205  RH  086%=      5-min Rain = 0
KME1 280941Z 19018G24KT 23/21 A2971 RMK A01 T02300205  RH  086%=      5-min Rain = 0
KME1 280942Z 18018G23KT 23/20 A2971 RMK A01 T02300204  RH  085%=      5-min Rain = 0
KME1 280943Z 19015G20KT 23/21 A2971 RMK A01 T02300205  RH  085%=      5-min Rain = 0
KME1 280944Z 18014KT 23/21 A297 RMK A01 T02300205  RH  086%=      5-min Rain = 0
KME1 280945Z 18017G22KT 23/21 A297 RMK A01 T02300205  RH  086%=      5-min Rain = 0
KME1 280946Z 18016G23KT 23/21 A2971 RMK A01 T02290205  RH  086%=      5-min Rain = 0
KME1 280947Z 18016KT 23/21 A2971 RMK A01 T02290205  RH  086%=      5-min Rain = 0
KME1 280948Z 19014G21KT 23/21 A2971 RMK A01 T02290205  RH  086%=      5-min Rain = 0
KME1 280949Z 18014KT 23/21 A2971 RMK A01 T02290205  RH  086%=      5-min Rain = 0
KME1 280950Z 18015G20KT 23/21 A2971 RMK A01 T02290205  RH  087%=      5-min Rain = 0
KME1 280951Z 18017KT 23/21 A2971 RMK A01 T02280205  RH  087%=      5-min Rain = 0
KME1 280952Z 19016G22KT 23/21 A2971 RMK A01 T02280205  RH  087%=      5-min Rain = 0
KME1 280953Z 19016G21KT 23/21 A2971 RMK A01 T02280205  RH  087%=      5-min Rain = 0
KME1 280954Z 19013KT 23/21 A2971 RMK A01 T02290205  RH  086%=      5-min Rain = 0
KME1 280955Z 19013KT 23/21 A2971 RMK A01 T02290205  RH  087%=      5-min Rain = 0
KME1 280956Z 19012G18KT 23/21 A2971 RMK A01 T02290205  RH  086%=      5-min Rain = 0
KME1 280957Z 19014G19KT 23/21 A2971 RMK A01 T02290205  RH  086%=      5-min Rain = 0
KME1 280958Z 19016G21KT 23/21 A2971 RMK A01 T02290205  RH  086%=      5-min Rain = 0
KME1 280959Z 19014G19KT 23/21 A2972 RMK A01 T02290205  RH  086%=      5-min Rain = 0
KME1 281000Z 19014G21KT 23/21 A2972 RMK A01 T02300205  RH  086%=      5-min Rain = 0
KME1 281001Z 19018G25KT 23/21 A2972 RMK A01 T02300205  RH  086%=      5-min Rain = 0
KME1 281002Z 19018G24KT 23/21 A2972 RMK A01 T02310205  RH  085%=      5-min Rain = 0
KME1 281003Z 19021KT 23/21 A2972 RMK A01 T02310205  RH  085%=      5-min Rain = 0
KME1 281004Z 19016G22KT 23/21 A2972 RMK A01 T02320205  RH  085%=      5-min Rain = 0
KME1 281005Z 20014G19KT 23/21 A2972 RMK A01 T02320205  RH  085%=      5-min Rain = 0
KME1 281006Z 19018G23KT 23/21 A2972 RMK A01 T02320205  RH  085%=      5-min Rain = 0
KME1 281007Z 19018KT 23/21 A2972 RMK A01 T02320205  RH  085%=      5-min Rain = 0
KME1 281008Z 19014G20KT 23/21 A2973 RMK A01 T02310205  RH  085%=      5-min Rain = 0
KME1 281009Z 20014G19KT 23/21 A2973 RMK A01 T02320205  RH  085%=      5-min Rain = 0
KME1 281010Z 20014G20KT 23/21 A2973 RMK A01 T02320205  RH  085%=      5-min Rain = 0
KME1 281011Z 20013KT 23/21 A2973 RMK A01 T02310205  RH  085%=      5-min Rain = 0
KME1 281012Z 20015G21KT 23/21 A2973 RMK A01 T02320205  RH  085%=      5-min Rain = 0
KME1 281013Z 20017G22KT 23/21 A2973 RMK A01 T02320205  RH  085%=      5-min Rain = 0
KME1 281014Z 20012KT 23/21 A2973 RMK A01 T02320205  RH  085%=      5-min Rain = 0
KME1 281015Z 20013KT 23/21 A2974 RMK A01 T02320205  RH  085%=      5-min Rain = 0
KME1 281016Z 19016G23KT 23/21 A2974 RMK A01 T02320205  RH  085%=      5-min Rain = 0
KME1 281017Z 20014G19KT 23/21 A2974 RMK A01 T02320205  RH  085%=      5-min Rain = 0
KME1 281018Z 20016KT 23/21 A2974 RMK A01 T02320205  RH  084%=      5-min Rain = 0
KME1 281019Z 19019KT 23/21 A2974 RMK A01 T02330205  RH  084%=      5-min Rain = 0
KME1 281020Z 20013KT 23/21 A2974 RMK A01 T02330205  RH  084%=      5-min Rain = 0
KME1 281021Z 20017G24KT 23/21 A2974 RMK A01 T02340205  RH  084%=      5-min Rain = 0
KME1 281022Z 20017G23KT 23/21 A2974 RMK A01 T02330205  RH  084%=      5-min Rain = 0
KME1 281023Z 20013KT 23/21 A2974 RMK A01 T02330205  RH  084%=      5-min Rain = 0
KME1 281024Z 19015KT 23/21 A2974 RMK A01 T02340206  RH  084%=      5-min Rain = 0
KME1 281025Z 19015G21KT 23/21 A2974 RMK A01 T02330206  RH  084%=      5-min Rain = 0
KME1 281026Z 19014KT 23/21 A2974 RMK A01 T02330206  RH  084%=      5-min Rain = 0
KME1 281027Z 19016G23KT 23/21 A2973 RMK A01 T02330206  RH  085%=      5-min Rain = 0
KME1 281028Z 19021G27KT 23/21 A2973 RMK A01 T02330205  RH  084%=      5-min Rain = 0
KME1 281029Z 19017G23KT 23/20 A2973 RMK A01 T02330204  RH  084%=      5-min Rain = 0
KME1 281030Z 19018G27KT 23/21 A2973 RMK A01 T02330205  RH  084%=      5-min Rain = 0
KME1 281031Z 19016KT 23/21 A2973 RMK A01 T02330205  RH  084%=      5-min Rain = 0
KME1 281032Z 19014G19KT 23/21 A2973 RMK A01 T02340205  RH  084%=      5-min Rain = 0
KME1 281033Z 19015G22KT 23/21 A2973 RMK A01 T02330205  RH  084%=      5-min Rain = 0
KME1 281034Z 19016KT 23/21 A2973 RMK A01 T02330205  RH  084%=      5-min Rain = 0
KME1 281035Z 19016KT 23/21 A2973 RMK A01 T02330205  RH  084%=      5-min Rain = 0
KME1 281036Z 19017KT 23/21 A2973 RMK A01 T02340205  RH  084%=      5-min Rain = 0
KME1 281037Z 19015G24KT 23/21 A2973 RMK A01 T02330205  RH  084%=      5-min Rain = 0
KME1 281038Z 19016G21KT 23/21 A2973 RMK A01 T02340205  RH  084%=      5-min Rain = 0
KME1 281039Z 19015G22KT 23/21 A2973 RMK A01 T02330205  RH  084%=      5-min Rain = 0
KME1 281040Z 19016G21KT 23/21 A2973 RMK A01 T02330205  RH  084%=      5-min Rain = 0
KME1 281041Z 19014G19KT 23/21 A2973 RMK A01 T02340205  RH  084%=      5-min Rain = 0
KME1 281042Z 19015G20KT 23/21 A2973 RMK A01 T02340205  RH  084%=      5-min Rain = 0
KME1 281043Z 19015KT 23/21 A2973 RMK A01 T02330205  RH  084%=      5-min Rain = 0
KME1 281044Z 20018G23KT 23/21 A2973 RMK A01 T02330205  RH  084%=      5-min Rain = 0
KME1 281045Z 19013G20KT 23/20 A2973 RMK A01 T02330204  RH  084%=      5-min Rain = 0
KME1 281046Z 20018G25KT 23/20 A2973 RMK A01 T02330204  RH  084%=      5-min Rain = 0
KME1 281047Z 19015KT 23/20 A2973 RMK A01 T02330204  RH  084%=      5-min Rain = 0
KME1 281048Z 19014KT 23/20 A2973 RMK A01 T02330204  RH  084%=      5-min Rain = 0
KME1 281049Z 19018KT 23/20 A2973 RMK A01 T02330204  RH  084%=      5-min Rain = 0
KME1 281050Z 19013KT 23/20 A2973 RMK A01 T02330204  RH  084%=      5-min Rain = 0
KME1 281051Z 19016G22KT 23/20 A2973 RMK A01 T02330204  RH  084%=      5-min Rain = 0
KME1 281052Z 19013G18KT 23/20 A2973 RMK A01 T02330204  RH  084%=      5-min Rain = 0
KME1 281053Z 18015G20KT 23/21 A2973 RMK A01 T02330205  RH  084%=      5-min Rain = 0
KME1 281054Z 19016G21KT 23/20 A2973 RMK A01 T02330204  RH  084%=      5-min Rain = 0
KME1 281055Z 19015G21KT 23/20 A2973 RMK A01 T02320204  RH  084%=      5-min Rain = 0
KME1 281056Z 18015G20KT 23/20 A2974 RMK A01 T02320204  RH  084%=      5-min Rain = 0
KME1 281057Z 19017G22KT 23/20 A2973 RMK A01 T02320204  RH  084%=      5-min Rain = 0
KME1 281058Z 19015G22KT 23/20 A2974 RMK A01 T02320204  RH  084%=      5-min Rain = 0
KME1 281059Z 20014G19KT 23/20 A2974 RMK A01 T02320204  RH  084%=      5-min Rain = 0
KME1 281100Z 19015G21KT 23/20 A2974 RMK A01 T02320204  RH  084%=      5-min Rain = 0
KME1 281101Z 19016KT 23/20 A2974 RMK A01 T02320204  RH  084%=      5-min Rain = 0
KME1 281102Z 20017KT 23/20 A2974 RMK A01 T02320204  RH  084%=      5-min Rain = 0
KME1 281103Z 20012G19KT 23/20 A2974 RMK A01 T02320204  RH  084%=      5-min Rain = 0
KME1 281104Z 19011KT 23/20 A2974 RMK A01 T02320204  RH  084%=      5-min Rain = 0
KME1 281105Z 19016G22KT 23/21 A2974 RMK A01 T02320205  RH  085%=      5-min Rain = 0
KME1 281106Z 20013KT 23/20 A2974 RMK A01 T02320204  RH  084%=      5-min Rain = 0
KME1 281107Z 19015KT 23/20 A2974 RMK A01 T02320204  RH  084%=      5-min Rain = 0
KME1 281108Z 19013KT 23/20 A2974 RMK A01 T02320204  RH  084%=      5-min Rain = 0
KME1 281109Z 19015KT 23/20 A2974 RMK A01 T02320204  RH  084%=      5-min Rain = 0
KME1 281110Z 20013KT 23/20 A2974 RMK A01 T02320204  RH  084%=      5-min Rain = 0
KME1 281111Z 19014KT 23/20 A2974 RMK A01 T02320204  RH  084%=      5-min Rain = 0
KME1 281112Z 19012G17KT 23/20 A2974 RMK A01 T02320204  RH  084%=      5-min Rain = 0
KME1 281113Z 20014KT 23/20 A2974 RMK A01 T02320204  RH  085%=      5-min Rain = 0
KME1 281114Z 20014G19KT 23/20 A2974 RMK A01 T02320204  RH  085%=      5-min Rain = 0
KME1 281115Z 19012KT 23/21 A2974 RMK A01 T02320205  RH  085%=      5-min Rain = 0
KME1 281116Z 19012G18KT 23/21 A2974 RMK A01 T02310205  RH  085%=      5-min Rain = 0
KME1 281117Z 19014KT 23/21 A2974 RMK A01 T02310205  RH  085%=      5-min Rain = 0
KME1 281118Z 19016G23KT 23/20 A2974 RMK A01 T02310204  RH  085%=      5-min Rain = 0
KME1 281119Z 20013G18KT 23/20 A2974 RMK A01 T02310204  RH  085%=      5-min Rain = 0
KME1 281120Z 19013KT 23/20 A2974 RMK A01 T02310204  RH  085%=      5-min Rain = 0
KME1 281121Z 19011G18KT 23/20 A2974 RMK A01 T02310204  RH  085%=      5-min Rain = 0
KME1 281122Z 20014KT 23/20 A2974 RMK A01 T02320204  RH  085%=      5-min Rain = 0
KME1 281123Z 19011KT 23/20 A2974 RMK A01 T02320204  RH  085%=      5-min Rain = 0
KME1 281124Z 18012KT 23/21 A2974 RMK A01 T02320205  RH  085%=      5-min Rain = 0
KME1 281125Z 19014KT 23/21 A2974 RMK A01 T02310205  RH  085%=      5-min Rain = 0
KME1 281126Z 20016G21KT 23/20 A2974 RMK A01 T02310204  RH  085%=      5-min Rain = 0
KME1 281127Z 19013KT 23/20 A2974 RMK A01 T02310203  RH  084%=      5-min Rain = 0
KME1 281128Z 19012KT 23/20 A2974 RMK A01 T02320204  RH  084%=      5-min Rain = 0
KME1 281129Z 19013KT 23/20 A2974 RMK A01 T02320204  RH  084%=      5-min Rain = 0
KME1 281130Z 19014KT 23/20 A2974 RMK A01 T02320204  RH  084%=      5-min Rain = 0
KME1 281131Z 19014G19KT 23/20 A2974 RMK A01 T02320204  RH  084%=      5-min Rain = 0
KME1 281132Z 19013KT 23/20 A2974 RMK A01 T02320204  RH  084%=      5-min Rain = 0
KME1 281133Z 19013G18KT 23/20 A2975 RMK A01 T02320203  RH  084%=      5-min Rain = 0
KME1 281134Z 20013KT 23/20 A2975 RMK A01 T02320204  RH  084%=      5-min Rain = 0
KME1 281135Z 20016G23KT 23/20 A2975 RMK A01 T02320203  RH  084%=      5-min Rain = 0
KME1 281136Z 20015KT 23/20 A2975 RMK A01 T02320203  RH  084%=      5-min Rain = 0
KME1 281137Z 19015KT 23/20 A2975 RMK A01 T02320203  RH  084%=      5-min Rain = 0
KME1 281138Z 19015KT 23/20 A2975 RMK A01 T02320203  RH  083%=      5-min Rain = 0
KME1 281139Z 19013KT 23/20 A2975 RMK A01 T02320202  RH  083%=      5-min Rain = 0
KME1 281140Z 19015G22KT 23/20 A2975 RMK A01 T02320203  RH  083%=      5-min Rain = 0
KME1 281141Z 19013KT 23/20 A2975 RMK A01 T02320203  RH  083%=      5-min Rain = 0
KME1 281142Z 19013G18KT 23/20 A2975 RMK A01 T02320203  RH  084%=      5-min Rain = 0
KME1 281143Z 19014KT 23/20 A2975 RMK A01 T02320203  RH  084%=      5-min Rain = 0
KME1 281144Z 19014KT 23/20 A2975 RMK A01 T02320203  RH  084%=      5-min Rain = 0
KME1 281145Z 19011G17KT 23/20 A2975 RMK A01 T02320203  RH  084%=      5-min Rain = 0
KME1 281146Z 20009G14KT 23/20 A2975 RMK A01 T02310203  RH  085%=      5-min Rain = 0
KME1 281147Z 20015G20KT 23/20 A2975 RMK A01 T02300203  RH  085%=      5-min Rain = 0
KME1 281148Z 20015KT 23/20 A2975 RMK A01 T02300202  RH  084%=      5-min Rain = 0
KME1 281149Z 20012KT 23/20 A2975 RMK A01 T02300202  RH  084%=      5-min Rain = 0
KME1 281150Z 19014KT 23/20 A2975 RMK A01 T02300202  RH  084%=      5-min Rain = 0
KME1 281151Z 19015G22KT 23/20 A2975 RMK A01 T02300202  RH  084%=      5-min Rain = 0
KME1 281152Z 19016G21KT 23/20 A2975 RMK A01 T02300202  RH  084%=      5-min Rain = 0
KME1 281153Z 19015KT 23/20 A2975 RMK A01 T02300201  RH  084%=      5-min Rain = 0
KME1 281154Z 19014G19KT 23/20 A2975 RMK A01 T02300201  RH  084%=      5-min Rain = 0
KME1 281155Z 19016G21KT 23/20 A2975 RMK A01 T02300201  RH  083%=      5-min Rain = 0
KME1 281156Z 19016KT 23/20 A2975 RMK A01 T02300201  RH  083%=      5-min Rain = 0
KME1 281157Z 19016KT 23/20 A2975 RMK A01 T02300200  RH  083%=      5-min Rain = 0
KME1 281158Z 19011G16KT 23/20 A2975 RMK A01 T02300201  RH  084%=      5-min Rain = 0
KME1 281159Z 19014KT 23/20 A2975 RMK A01 T02290201  RH  084%=      5-min Rain = 0
KME1 281200Z 19013G21KT 23/20 A2975 RMK A01 T02290200  RH  084%=      5-min Rain = 0
KME1 281201Z 19016KT 23/20 A2975 RMK A01 T02290201  RH  084%=      5-min Rain = 0
KME1 281202Z 19015KT 23/20 A2975 RMK A01 T02290200  RH  084%=      5-min Rain = 0
KME1 281203Z 19012G17KT 23/20 A2975 RMK A01 T02290200  RH  084%=      5-min Rain = 0
KME1 281204Z 19012G18KT 23/20 A2975 RMK A01 T02290201  RH  084%=      5-min Rain = 0
KME1 281205Z 19012G17KT 23/20 A2975 RMK A01 T02280201  RH  084%=      5-min Rain = 0
KME1 281206Z 19014KT 23/20 A2975 RMK A01 T02280201  RH  084%=      5-min Rain = 0
KME1 281207Z 19014G19KT 23/20 A2975 RMK A01 T02280201  RH  084%=      5-min Rain = 0
KME1 281208Z 19015G20KT 23/20 A2975 RMK A01 T02290201  RH  084%=      5-min Rain = 0
KME1 281209Z 19015KT 23/20 A2975 RMK A01 T02280200  RH  084%=      5-min Rain = 0
KME1 281210Z 19014G20KT 23/20 A2975 RMK A01 T02280200  RH  084%=      5-min Rain = 0
KME1 281211Z 19013G18KT 23/20 A2975 RMK A01 T02290201  RH  084%=      5-min Rain = 0
KME1 281212Z 19014G20KT 23/20 A2975 RMK A01 T02280201  RH  084%=      5-min Rain = 0
KME1 281213Z 19013G20KT 23/20 A2975 RMK A01 T02280201  RH  084%=      5-min Rain = 0
KME1 281214Z 19014KT 23/20 A2975 RMK A01 T02280201  RH  085%=      5-min Rain = 0
KME1 281215Z 19017KT 23/20 A2975 RMK A01 T02280201  RH  084%=      5-min Rain = 0
KME1 281216Z 19011G17KT 23/20 A2975 RMK A01 T02280201  RH  084%=      5-min Rain = 0
KME1 281217Z 19013KT 23/20 A2975 RMK A01 T02280201  RH  085%=      5-min Rain = 0
KME1 281218Z 19013KT 23/20 A2975 RMK A01 T02280201  RH  085%=      5-min Rain = 0
KME1 281219Z 19012KT 23/20 A2975 RMK A01 T02280201  RH  085%=      5-min Rain = 0
KME1 281220Z 19010KT 23/20 A2975 RMK A01 T02280201  RH  085%=      5-min Rain = 0
KME1 281221Z 20013KT 23/20 A2975 RMK A01 T02280202  RH  085%=      5-min Rain = 0
KME1 281222Z 19011KT 23/20 A2975 RMK A01 T02280202  RH  085%=      5-min Rain = 0
KME1 281223Z 19014G19KT 23/20 A2975 RMK A01 T02280201  RH  085%=      5-min Rain = 0
KME1 281224Z 19015G20KT 23/20 A2975 RMK A01 T02280201  RH  085%=      5-min Rain = 0
KME1 281225Z 19013KT 23/20 A2975 RMK A01 T02280201  RH  085%=      5-min Rain = 0
KME1 281226Z 19015KT 23/20 A2976 RMK A01 T02280201  RH  085%=      5-min Rain = 0
KME1 281227Z 19016KT 23/20 A2976 RMK A01 T02280201  RH  085%=      5-min Rain = 0
KME1 281228Z 18012G17KT 23/20 A2976 RMK A01 T02290201  RH  084%=      5-min Rain = 0
KME1 281229Z 19015KT 23/20 A2976 RMK A01 T02280201  RH  085%=      5-min Rain = 0
KME1 281230Z 18012KT 23/20 A2976 RMK A01 T02280201  RH  084%=      5-min Rain = 0
KME1 281231Z 18012G17KT 23/20 A2976 RMK A01 T02280201  RH  085%=      5-min Rain = 0
KME1 281232Z 18013KT 23/20 A2976 RMK A01 T02290202  RH  085%=      5-min Rain = 0
KME1 281233Z 19012G18KT 23/20 A2976 RMK A01 T02280201  RH  084%=      5-min Rain = 0
KME1 281234Z 19012KT 23/20 A2976 RMK A01 T02280201  RH  085%=      5-min Rain = 0
KME1 281235Z 19010KT 23/20 A2976 RMK A01 T02280202  RH  085%=      5-min Rain = 0
KME1 281236Z 18012G17KT 23/20 A2976 RMK A01 T02290202  RH  085%=      5-min Rain = 0
KME1 281237Z 19010KT 23/20 A2976 RMK A01 T02280202  RH  085%=      5-min Rain = 0
KME1 281238Z 18012KT 23/20 A2975 RMK A01 T02280202  RH  085%=      5-min Rain = 0
KME1 281239Z 18015KT 23/20 A2975 RMK A01 T02280201  RH  085%=      5-min Rain = 0
KME1 281240Z 19010KT 23/20 A2975 RMK A01 T02280201  RH  084%=      5-min Rain = 0
KME1 281241Z 19013KT 23/20 A2975 RMK A01 T02280201  RH  085%=      5-min Rain = 0
KME1 281242Z 19013KT 23/20 A2976 RMK A01 T02290201  RH  084%=      5-min Rain = 0
KME1 281243Z 18015KT 23/20 A2976 RMK A01 T02290201  RH  084%=      5-min Rain = 0
KME1 281244Z 19015KT 23/20 A2976 RMK A01 T02290201  RH  084%=      5-min Rain = 0
KME1 281245Z 18014KT 23/20 A2976 RMK A01 T02290201  RH  084%=      5-min Rain = 0
KME1 281246Z 19010KT 23/20 A2976 RMK A01 T02290201  RH  084%=      5-min Rain = 0
KME1 281247Z 19013G18KT 23/20 A2976 RMK A01 T02290202  RH  084%=      5-min Rain = 0
KME1 281248Z 18015G20KT 23/20 A2976 RMK A01 T02290201  RH  084%=      5-min Rain = 0
KME1 281249Z 19016KT 23/20 A2976 RMK A01 T02300201  RH  084%=      5-min Rain = 0
KME1 281250Z 18014KT 23/20 A2976 RMK A01 T02300201  RH  084%=      5-min Rain = 0
KME1 281251Z 19012G18KT 23/20 A2976 RMK A01 T02300202  RH  084%=      5-min Rain = 0
KME1 281252Z 18012G20KT 23/20 A2976 RMK A01 T02300202  RH  084%=      5-min Rain = 0
KME1 281253Z 18014KT 23/20 A2976 RMK A01 T02300201  RH  084%=      5-min Rain = 0
KME1 281254Z 18014G19KT 23/20 A2976 RMK A01 T02300201  RH  084%=      5-min Rain = 0
KME1 281255Z 18013KT 23/20 A2976 RMK A01 T02300201  RH  084%=      5-min Rain = 0
KME1 281256Z 18015KT 23/20 A2976 RMK A01 T02300201  RH  084%=      5-min Rain = 0
KME1 281257Z 18013G23KT 23/20 A2976 RMK A01 T02310201  RH  084%=      5-min Rain = 0
KME1 281258Z 18017KT 23/20 A2976 RMK A01 T02310201  RH  083%=      5-min Rain = 0
KME1 281259Z 19016KT 23/20 A2976 RMK A01 T02310201  RH  083%=      5-min Rain = 0
KME1 281300Z 19014KT 23/20 A2976 RMK A01 T02310201  RH  083%=      5-min Rain = 0
KME1 281301Z 19016KT 23/20 A2976 RMK A01 T02320201  RH  083%=      5-min Rain = 0
KME1 281302Z 19015G22KT 23/20 A2976 RMK A01 T02320201  RH  083%=      5-min Rain = 0
KME1 281303Z 19014G21KT 23/20 A2976 RMK A01 T02320202  RH  083%=      5-min Rain = 0
KME1 281304Z 19015KT 23/20 A2976 RMK A01 T02320201  RH  083%=      5-min Rain = 0
KME1 281305Z 19013KT 23/20 A2976 RMK A01 T02320201  RH  083%=      5-min Rain = 0
KME1 281306Z 19013KT 23/20 A2976 RMK A01 T02330201  RH  083%=      5-min Rain = 0
KME1 281307Z 19014G22KT 23/20 A2976 RMK A01 T02330202  RH  083%=      5-min Rain = 0
KME1 281308Z 19018G23KT 23/20 A2976 RMK A01 T02330201  RH  082%=      5-min Rain = 0
KME1 281309Z 19017G23KT 23/20 A2976 RMK A01 T02330201  RH  082%=      5-min Rain = 0
KME1 281310Z 18015G20KT 23/20 A2976 RMK A01 T02330201  RH  082%=      5-min Rain = 0
KME1 281311Z 18014G19KT 23/20 A2976 RMK A01 T02340202  RH  082%=      5-min Rain = 0
KME1 281312Z 18013G18KT 23/20 A2976 RMK A01 T02340202  RH  083%=      5-min Rain = 0
KME1 281313Z 19014KT 23/20 A2977 RMK A01 T02340202  RH  083%=      5-min Rain = 0
KME1 281314Z 19014KT 23/20 A2977 RMK A01 T02340202  RH  082%=      5-min Rain = 0
KME1 281315Z 19013KT 23/20 A2977 RMK A01 T02340202  RH  082%=      5-min Rain = 0
KME1 281316Z 19012KT 23/20 A2977 RMK A01 T02340203  RH  082%=      5-min Rain = 0
KME1 281317Z 19012KT 24/20 A2976 RMK A01 T02350203  RH  082%=      5-min Rain = 0
KME1 281318Z 18013KT 24/20 A2976 RMK A01 T02350204  RH  083%=      5-min Rain = 0
KME1 281319Z 19016G21KT 24/20 A2976 RMK A01 T02350204  RH  083%=      5-min Rain = 0
KME1 281320Z 19016G24KT 24/20 A2976 RMK A01 T02350202  RH  082%=      5-min Rain = 0
KME1 281321Z 18014KT 24/20 A2976 RMK A01 T02350203  RH  082%=      5-min Rain = 0
KME1 281322Z 19014G20KT 24/20 A2976 RMK A01 T02350204  RH  082%=      5-min Rain = 0
KME1 281323Z 19014G20KT 24/20 A2976 RMK A01 T02350203  RH  082%=      5-min Rain = 0
KME1 281324Z 19014KT 24/20 A2977 RMK A01 T02360203  RH  082%=      5-min Rain = 0
KME1 281325Z 19015KT 24/20 A2977 RMK A01 T02360204  RH  082%=      5-min Rain = 0
KME1 281326Z 18014KT 24/20 A2977 RMK A01 T02360203  RH  082%=      5-min Rain = 0
KME1 281327Z 19013KT 24/21 A2977 RMK A01 T02360205  RH  082%=      5-min Rain = 0
KME1 281328Z 19013G18KT 24/20 A2976 RMK A01 T02360204  RH  082%=      5-min Rain = 0
KME1 281329Z 19011KT 24/21 A2977 RMK A01 T02370205  RH  082%=      5-min Rain = 0
KME1 281330Z 18017G22KT 24/20 A2976 RMK A01 T02370204  RH  082%=      5-min Rain = 0
KME1 281331Z 19016KT 24/20 A2977 RMK A01 T02370204  RH  081%=      5-min Rain = 0
KME1 281332Z 19015KT 24/20 A2977 RMK A01 T02370204  RH  082%=      5-min Rain = 0
KME1 281333Z 19013KT 24/20 A2977 RMK A01 T02370204  RH  082%=      5-min Rain = 0
KME1 281334Z 19013G18KT 24/21 A2977 RMK A01 T02380205  RH  082%=      5-min Rain = 0
KME1 281335Z 19015G20KT 24/20 A2977 RMK A01 T02380204  RH  082%=      5-min Rain = 0
KME1 281336Z 19014KT 24/20 A2977 RMK A01 T02380204  RH  081%=      5-min Rain = 0
KME1 281337Z 20015KT 24/21 A2977 RMK A01 T02380205  RH  082%=      5-min Rain = 0
KME1 281338Z 19014KT 24/21 A2977 RMK A01 T02380205  RH  081%=      5-min Rain = 0
KME1 281339Z 18014G21KT 24/20 A2977 RMK A01 T02390204  RH  081%=      5-min Rain = 0
KME1 281340Z 19014G21KT 24/20 A2977 RMK A01 T02390204  RH  081%=      5-min Rain = 0
KME1 281341Z 19016KT 24/20 A2977 RMK A01 T02390203  RH  081%=      5-min Rain = 0
KME1 281342Z 18013KT 24/20 A2977 RMK A01 T02390204  RH  081%=      5-min Rain = 0
KME1 281343Z 19013G19KT 24/21 A2977 RMK A01 T02390205  RH  081%=      5-min Rain = 0
KME1 281344Z 19012KT 24/20 A2977 RMK A01 T02390204  RH  081%=      5-min Rain = 0
KME1 281345Z 19011KT 24/21 A2978 RMK A01 T02390206  RH  082%=      5-min Rain = 0
KME1 281346Z 19010KT 24/21 A2978 RMK A01 T02400208  RH  082%=      5-min Rain = 0
KME1 281347Z 19013KT 24/21 A2978 RMK A01 T02410207  RH  082%=      5-min Rain = 0
KME1 281348Z 19017G25KT 24/21 A2978 RMK A01 T02410205  RH  080%=      5-min Rain = 0
KME1 281349Z 20017KT 24/20 A2978 RMK A01 T02400204  RH  080%=      5-min Rain = 0
KME1 281350Z 20010KT 24/21 A2978 RMK A01 T02400205  RH  081%=      5-min Rain = 0
KME1 281351Z 19010KT 24/21 A2978 RMK A01 T02400207  RH  082%=      5-min Rain = 0
KME1 281352Z 19012G17KT 24/21 A2978 RMK A01 T02400206  RH  081%=      5-min Rain = 0
KME1 281353Z 19016G21KT 24/21 A2978 RMK A01 T02410206  RH  081%=      5-min Rain = 0
KME1 281354Z 19016KT 24/20 A2978 RMK A01 T02410204  RH  080%=      5-min Rain = 0
KME1 281355Z 20013KT 24/20 A2978 RMK A01 T02410204  RH  080%=      5-min Rain = 0
KME1 281356Z 19014KT 24/21 A2978 RMK A01 T02410205  RH  080%=      5-min Rain = 0
KME1 281357Z 19016G22KT 24/21 A2978 RMK A01 T02420205  RH  080%=      5-min Rain = 0
KME1 281358Z 20018KT 24/20 A2978 RMK A01 T02420204  RH  079%=      5-min Rain = 0
KME1 281359Z 20018KT 24/20 A2978 RMK A01 T02420204  RH  079%=      5-min Rain = 0
KME1 281400Z 20020KT 24/20 A2978 RMK A01 T02420203  RH  079%=      5-min Rain = 0
KME1 281401Z 21018G24KT 24/20 A2978 RMK A01 T02420203  RH  079%=      5-min Rain = 0
KME1 281402Z 21017G22KT 24/20 A2978 RMK A01 T02430203  RH  079%=      5-min Rain = 0
KME1 281403Z 20015KT 24/21 A2978 RMK A01 T02430205  RH  079%=      5-min Rain = 0
KME1 281404Z 20014KT 24/20 A2978 RMK A01 T02430204  RH  079%=      5-min Rain = 0
KME1 281405Z 19018KT 24/21 A2978 RMK A01 T02440205  RH  079%=      5-min Rain = 0
KME1 281406Z 19015G20KT 24/20 A2978 RMK A01 T02440204  RH  079%=      5-min Rain = 0
KME1 281407Z 20013KT 24/21 A2978 RMK A01 T02430205  RH  079%=      5-min Rain = 0
KME1 281408Z 21016G21KT 24/21 A2978 RMK A01 T02440206  RH  079%=      5-min Rain = 0
KME1 281409Z 20016KT 24/20 A2978 RMK A01 T02440204  RH  078%=      5-min Rain = 0
KME1 281410Z 20010KT 25/21 A2979 RMK A01 T02450206  RH  079%=      5-min Rain = 0
KME1 281411Z 18014KT 25/21 A2978 RMK A01 T02460208  RH  079%=      5-min Rain = 0
KME1 281412Z 20015KT 25/21 A2978 RMK A01 T02460206  RH  078%=      5-min Rain = 0
KME1 281413Z 19014KT 25/21 A2979 RMK A01 T02460206  RH  078%=      5-min Rain = 0
KME1 281414Z 19014KT 25/21 A2979 RMK A01 T02460207  RH  079%=      5-min Rain = 0
KME1 281415Z 19013KT 25/21 A2979 RMK A01 T02460207  RH  079%=      5-min Rain = 0
KME1 281416Z 19013G25KT 25/21 A2979 RMK A01 T02470208  RH  079%=      5-min Rain = 0
KME1 281417Z 20018G24KT 25/21 A2978 RMK A01 T02470205  RH  077%=      5-min Rain = 0
KME1 281418Z 19014KT 25/21 A2979 RMK A01 T02470207  RH  078%=      5-min Rain = 0
KME1 281419Z 19015KT 25/21 A2979 RMK A01 T02470207  RH  079%=      5-min Rain = 0
KME1 281420Z 20014G20KT 25/21 A2978 RMK A01 T02470207  RH  078%=      5-min Rain = 0
KME1 281421Z 19015KT 25/21 A2979 RMK A01 T02470207  RH  078%=      5-min Rain = 0
KME1 281422Z 19013KT 25/21 A2978 RMK A01 T02470207  RH  078%=      5-min Rain = 0
KME1 281423Z 20014KT 25/21 A2979 RMK A01 T02470207  RH  079%=      5-min Rain = 0
KME1 281424Z 21011KT 25/21 A2978 RMK A01 T02470208  RH  079%=      5-min Rain = 0
KME1 281425Z 20016G21KT 25/21 A2978 RMK A01 T02470208  RH  079%=      5-min Rain = 0
KME1 281426Z 20018G24KT 25/21 A2978 RMK A01 T02470205  RH  077%=      5-min Rain = 0
KME1 281427Z 20018KT 25/20 A2978 RMK A01 T02470204  RH  077%=      5-min Rain = 0
KME1 281428Z 21018KT 25/20 A2979 RMK A01 T02470204  RH  077%=      5-min Rain = 0
KME1 281429Z 20017G22KT 25/21 A2979 RMK A01 T02470205  RH  078%=      5-min Rain = 0
KME1 281430Z 20021KT 25/20 A2979 RMK A01 T02470204  RH  077%=      5-min Rain = 0
KME1 281431Z 20015G21KT 25/21 A2979 RMK A01 T02470205  RH  078%=      5-min Rain = 0
KME1 281432Z 21014KT 25/21 A2979 RMK A01 T02470207  RH  078%=      5-min Rain = 0
KME1 281433Z 19017G23KT 25/21 A2979 RMK A01 T02480206  RH  077%=      5-min Rain = 0
KME1 281434Z 19016KT 25/21 A2979 RMK A01 T02490207  RH  077%=      5-min Rain = 0
KME1 281435Z 20015G20KT 25/21 A2979 RMK A01 T02490207  RH  077%=      5-min Rain = 0
KME1 281436Z 20014KT 25/21 A2979 RMK A01 T02490208  RH  078%=      5-min Rain = 0
KME1 281437Z 21016KT 25/21 A2979 RMK A01 T02490207  RH  077%=      5-min Rain = 0
KME1 281438Z 20018G24KT 25/21 A2978 RMK A01 T02490206  RH  077%=      5-min Rain = 0
KME1 281439Z 20017G22KT 25/21 A2978 RMK A01 T02490206  RH  077%=      5-min Rain = 0
KME1 281440Z 20018G24KT 25/21 A2978 RMK A01 T02490206  RH  077%=      5-min Rain = 0
KME1 281441Z 20016KT 25/21 A2978 RMK A01 T02500206  RH  077%=      5-min Rain = 0
KME1 281442Z 19015KT 25/21 A2978 RMK A01 T02490207  RH  077%=      5-min Rain = 0
KME1 281443Z 20016KT 25/21 A2979 RMK A01 T02490206  RH  077%=      5-min Rain = 0
KME1 281444Z 20014KT 25/21 A2979 RMK A01 T02490209  RH  078%=      5-min Rain = 0
KME1 281445Z 21016KT 25/21 A2979 RMK A01 T02500208  RH  077%=      5-min Rain = 0
KME1 281446Z 21016G23KT 25/21 A2979 RMK A01 T02510210  RH  078%=      5-min Rain = 0
KME1 281447Z 21018KT 25/21 A2978 RMK A01 T02520207  RH  076%=      5-min Rain = 0
KME1 281448Z 21016KT 25/21 A2979 RMK A01 T02510208  RH  077%=      5-min Rain = 0
KME1 281449Z 20011G17KT 25/21 A2979 RMK A01 T02510209  RH  078%=      5-min Rain = 0
KME1 281450Z 20015G21KT 25/21 A2979 RMK A01 T02520209  RH  077%=      5-min Rain = 0
KME1 281451Z 20018G23KT 25/21 A2979 RMK A01 T02520207  RH  076%=      5-min Rain = 0
KME1 281452Z 21017KT 25/21 A2979 RMK A01 T02520207  RH  076%=      5-min Rain = 0
KME1 281453Z 20017KT 25/21 A2978 RMK A01 T02520207  RH  076%=      5-min Rain = 0
KME1 281454Z 20017KT 25/21 A2978 RMK A01 T02530207  RH  076%=      5-min Rain = 0
KME1 281455Z 20019KT 25/21 A2978 RMK A01 T02520206  RH  076%=      5-min Rain = 0
KME1 281456Z 20017KT 25/21 A2978 RMK A01 T02520206  RH  076%=      5-min Rain = 0
KME1 281457Z 20013KT 25/21 A2979 RMK A01 T02510207  RH  077%=      5-min Rain = 0
KME1 281458Z 20014KT 25/21 A2979 RMK A01 T02510209  RH  078%=      5-min Rain = 0
KME1 281459Z 21015G21KT 25/21 A2979 RMK A01 T02510210  RH  078%=      5-min Rain = 0
KME1 281500Z 19017KT 25/21 A2979 RMK A01 T02510207  RH  076%=      5-min Rain = 0
KME1 281501Z 20017KT 25/21 A2979 RMK A01 T02490206  RH  077%=      5-min Rain = 0
KME1 281502Z 20015KT 25/21 A2979 RMK A01 T02490206  RH  077%=      5-min Rain = 0
KME1 281503Z 21017KT 25/21 A2979 RMK A01 T02490205  RH  077%=      5-min Rain = 0
KME1 281504Z 20019KT 25/21 A2979 RMK A01 T02490206  RH  077%=      5-min Rain = 0
KME1 281505Z 21017KT 25/21 A2979 RMK A01 T02490205  RH  076%=      5-min Rain = 0
KME1 281506Z 21013KT 25/21 A2979 RMK A01 T02500207  RH  077%=      5-min Rain = 0
KME1 281507Z 20011KT 25/21 A2979 RMK A01 T02500208  RH  077%=      5-min Rain = 0
KME1 281508Z 20013G18KT 25/21 A2979 RMK A01 T02520210  RH  078%=      5-min Rain = 0
KME1 281509Z 21014KT 25/21 A2979 RMK A01 T02530209  RH  076%=      5-min Rain = 0
KME1 281510Z 21014G19KT 25/21 A2978 RMK A01 T02540209  RH  076%=      5-min Rain = 0
KME1 281511Z 19014G19KT 25/21 A2978 RMK A01 T02540208  RH  076%=      5-min Rain = 0
KME1 281512Z 20015KT 25/21 A2978 RMK A01 T02540207  RH  075%=      5-min Rain = 0
KME1 281513Z 20015KT 25/21 A2978 RMK A01 T02540206  RH  075%=      5-min Rain = 0
KME1 281514Z 20015KT 25/21 A2978 RMK A01 T02540206  RH  075%=      5-min Rain = 0
KME1 281515Z 19014KT 25/21 A2978 RMK A01 T02540208  RH  076%=      5-min Rain = 0
KME1 281516Z 21013KT 25/21 A2978 RMK A01 T02540208  RH  076%=      5-min Rain = 0
KME1 281517Z 21014G20KT 25/21 A2978 RMK A01 T02540209  RH  076%=      5-min Rain = 0
KME1 281518Z 21015KT 26/21 A2978 RMK A01 T02560208  RH  075%=      5-min Rain = 0
KME1 281519Z 21013G18KT 26/21 A2979 RMK A01 T02560209  RH  075%=      5-min Rain = 0
KME1 281520Z 20016G21KT 26/21 A2978 RMK A01 T02560208  RH  075%=      5-min Rain = 0
KME1 281521Z 20015KT 26/21 A2978 RMK A01 T02560208  RH  075%=      5-min Rain = 0
KME1 281522Z 20016KT 26/21 A2978 RMK A01 T02560208  RH  075%=      5-min Rain = 0
KME1 281523Z 20017KT 26/21 A2978 RMK A01 T02550206  RH  074%=      5-min Rain = 0
KME1 281524Z 21016KT 26/21 A2978 RMK A01 T02550208  RH  075%=      5-min Rain = 0
KME1 281525Z 21017KT 26/21 A2978 RMK A01 T02560206  RH  074%=      5-min Rain = 0
KME1 281526Z 21014KT 26/21 A2978 RMK A01 T02560206  RH  074%=      5-min Rain = 0
KME1 281527Z 20011KT 26/21 A2978 RMK A01 T02560210  RH  075%=      5-min Rain = 0
KME1 281528Z 20011KT 26/21 A2978 RMK A01 T02580211  RH  075%=      5-min Rain = 0
KME1 281529Z 20010KT 26/21 A2978 RMK A01 T02590214  RH  076%=      5-min Rain = 0
KME1 281530Z 20013G18KT 26/21 A2978 RMK A01 T02610212  RH  075%=      5-min Rain = 0
KME1 281531Z 20015KT 26/21 A2978 RMK A01 T02610208  RH  073%=      5-min Rain = 0
KME1 281532Z 20014KT 26/21 A2978 RMK A01 T02600207  RH  073%=      5-min Rain = 0
KME1 281533Z 20017KT 26/21 A2978 RMK A01 T02600206  RH  072%=      5-min Rain = 0
KME1 281534Z 21017KT 26/21 A2979 RMK A01 T02590206  RH  072%=      5-min Rain = 0
KME1 281535Z 22012G17KT 26/21 A2979 RMK A01 T02590207  RH  073%=      5-min Rain = 0
KME1 281536Z 21013G18KT 26/21 A2979 RMK A01 T02610210  RH  074%=      5-min Rain = 0
KME1 281537Z 20016KT 26/21 A2979 RMK A01 T02610206  RH  072%=      5-min Rain = 0
KME1 281538Z 20012KT 26/21 A2978 RMK A01 T02610207  RH  072%=      5-min Rain = 0
KME1 281539Z 21013G18KT 26/21 A2978 RMK A01 T02600207  RH  072%=      5-min Rain = 0
KME1 281540Z 21014KT 26/21 A2978 RMK A01 T02600208  RH  073%=      5-min Rain = 0
KME1 281541Z 20014KT 26/21 A2978 RMK A01 T02610208  RH  072%=      5-min Rain = 0
KME1 281542Z 20010KT 26/21 A2979 RMK A01 T02610208  RH  073%=      5-min Rain = 0
KME1 281543Z 20011KT 26/21 A2979 RMK A01 T02620210  RH  073%=      5-min Rain = 0
KME1 281544Z 20010G15KT 26/21 A2979 RMK A01 T02630211  RH  073%=      5-min Rain = 0
KME1 281545Z 21013KT 26/21 A2979 RMK A01 T02640210  RH  072%=      5-min Rain = 0
KME1 281546Z 20011KT 26/21 A2979 RMK A01 T02640210  RH  072%=      5-min Rain = 0
KME1 281547Z 22013KT 27/21 A2979 RMK A01 T02650212  RH  073%=      5-min Rain = 0
KME1 281548Z 21010G17KT 27/21 A2979 RMK A01 T02650211  RH  072%=      5-min Rain = 0
KME1 281549Z 20014KT 27/21 A2979 RMK A01 T02660211  RH  072%=      5-min Rain = 0
KME1 281550Z 21014KT 27/21 A2979 RMK A01 T02650207  RH  070%=      5-min Rain = 0
KME1 281551Z 20011KT 27/21 A2979 RMK A01 T02650207  RH  070%=      5-min Rain = 0
KME1 281552Z 20011G17KT 26/21 A2979 RMK A01 T02640210  RH  072%=      5-min Rain = 0
KME1 281553Z 21013KT 26/21 A2979 RMK A01 T02640208  RH  071%=      5-min Rain = 0
KME1 281554Z 22013KT 27/21 A2979 RMK A01 T02650208  RH  071%=      5-min Rain = 0
KME1 281555Z 22016KT 27/21 A2979 RMK A01 T02660205  RH  069%=      5-min Rain = 0
KME1 281556Z 22012KT 27/21 A2979 RMK A01 T02670207  RH  070%=      5-min Rain = 0
KME1 281557Z 21011G17KT 27/21 A2979 RMK A01 T02670211  RH  071%=      5-min Rain = 0
KME1 281558Z 20013KT 27/21 A2979 RMK A01 T02680206  RH  069%=      5-min Rain = 0
KME1 281559Z 21016KT 27/21 A2979 RMK A01 T02680206  RH  069%=      5-min Rain = 0
KME1 281600Z 21015KT 27/21 A2979 RMK A01 T02670205  RH  069%=      5-min Rain = 0
KME1 281601Z 20014KT 27/21 A2979 RMK A01 T02660205  RH  069%=      5-min Rain = 0
KME1 281602Z 21013G18KT 27/20 A2979 RMK A01 T02660204  RH  068%=      5-min Rain = 0
KME1 281603Z 21013KT 27/20 A2979 RMK A01 T02670203  RH  068%=      5-min Rain = 0
KME1 281604Z 21013KT 27/21 A2979 RMK A01 T02670206  RH  069%=      5-min Rain = 0
KME1 281605Z 21010KT 27/21 A2979 RMK A01 T02680207  RH  069%=      5-min Rain = 0
KME1 281606Z 20012KT 27/21 A2979 RMK A01 T02680207  RH  069%=      5-min Rain = 0
KME1 281607Z 19011G16KT 27/21 A2979 RMK A01 T02680207  RH  069%=      5-min Rain = 0
KME1 281608Z 20011KT 27/21 A2979 RMK A01 T02680209  RH  070%=      5-min Rain = 0
KME1 281609Z 20013KT 27/21 A2979 RMK A01 T02680208  RH  070%=      5-min Rain = 0
KME1 281610Z 21012KT 27/21 A2979 RMK A01 T02690206  RH  069%=      5-min Rain = 0
KME1 281611Z 20013KT 27/21 A2979 RMK A01 T02700209  RH  069%=      5-min Rain = 0
KME1 281612Z 20011G18KT 27/21 A2978 RMK A01 T02710211  RH  070%=      5-min Rain = 0
KME1 281613Z 20013G18KT 27/21 A2978 RMK A01 T02710206  RH  068%=      5-min Rain = 0
KME1 281614Z 21014KT 27/21 A2978 RMK A01 T02710207  RH  068%=      5-min Rain = 0
KME1 281615Z 22013KT 27/21 A2978 RMK A01 T02700206  RH  068%=      5-min Rain = 0
KME1 281616Z 23012KT 27/21 A2978 RMK A01 T02710205  RH  067%=      5-min Rain = 0
KME1 281617Z 20010KT 27/21 A2978 RMK A01 T02710210  RH  069%=      5-min Rain = 0
KME1 281618Z 20011KT 27/21 A2978 RMK A01 T02720209  RH  068%=      5-min Rain = 0
KME1 281619Z 21012KT 27/21 A2978 RMK A01 T02720209  RH  068%=      5-min Rain = 0
KME1 281620Z 21010KT 27/21 A2978 RMK A01 T02740210  RH  068%=      5-min Rain = 0
KME1 281621Z 22013G18KT 28/21 A2979 RMK A01 T02750209  RH  067%=      5-min Rain = 0
KME1 281622Z 22013KT 28/20 A2979 RMK A01 T02760204  RH  065%=      5-min Rain = 0
KME1 281623Z 22011KT 28/20 A2979 RMK A01 T02760203  RH  064%=      5-min Rain = 0
KME1 281624Z 22010KT 28/21 A2979 RMK A01 T02770208  RH  066%=      5-min Rain = 0
KME1 281625Z 23011KT 28/21 A2979 RMK A01 T02780209  RH  066%=      5-min Rain = 0
KME1 281626Z 22012KT 28/21 A2979 RMK A01 T02800210  RH  066%=      5-min Rain = 0
KME1 281627Z 21014KT 28/21 A2979 RMK A01 T02810210  RH  066%=      5-min Rain = 0
KME1 281628Z 22013KT 28/21 A2979 RMK A01 T02800209  RH  065%=      5-min Rain = 0
KME1 281629Z 22013KT 28/21 A2979 RMK A01 T02800205  RH  064%=      5-min Rain = 0
KME1 281630Z 22013KT 28/20 A2979 RMK A01 T02790204  RH  064%=      5-min Rain = 0
KME1 281631Z 21012KT 28/21 A2979 RMK A01 T02790208  RH  065%=      5-min Rain = 0
KME1 281632Z 23010KT 28/21 A2979 RMK A01 T02790205  RH  064%=      5-min Rain = 0
KME1 281633Z 22011G16KT 28/21 A2979 RMK A01 T02800209  RH  065%=      5-min Rain = 0
KME1 281634Z 22013KT 28/21 A2979 RMK A01 T02810206  RH  064%=      5-min Rain = 0
KME1 281635Z 22011KT 28/21 A2979 RMK A01 T02810208  RH  064%=      5-min Rain = 0
KME1 281636Z 23013KT 28/21 A2979 RMK A01 T02810206  RH  064%=      5-min Rain = 0
KME1 281637Z 22012KT 28/20 A2979 RMK A01 T02820202  RH  062%=      5-min Rain = 0
KME1 281638Z 21010KT 28/21 A2979 RMK A01 T02810205  RH  063%=      5-min Rain = 0
KME1 281639Z 21013G19KT 28/21 A2979 RMK A01 T02810206  RH  063%=      5-min Rain = 0
KME1 281640Z 22015KT 28/20 A2979 RMK A01 T02820198  RH  060%=      5-min Rain = 0
KME1 281641Z 22014KT 28/20 A2979 RMK A01 T02810197  RH  060%=      5-min Rain = 0
KME1 281642Z 24015KT 28/20 A2979 RMK A01 T02800197  RH  061%=      5-min Rain = 0
KME1 281643Z 23013G19KT 28/20 A2979 RMK A01 T02810198  RH  061%=      5-min Rain = 0
KME1 281644Z 23014KT 28/19 A2979 RMK A01 T02820194  RH  059%=      5-min Rain = 0
KME1 281645Z 22014KT 28/20 A2979 RMK A01 T02830196  RH  059%=      5-min Rain = 0
KME1 281646Z 22011KT 28/20 A2979 RMK A01 T02830195  RH  059%=      5-min Rain = 0
KME1 281647Z 22011KT 28/20 A2979 RMK A01 T02830197  RH  060%=      5-min Rain = 0
KME1 281648Z 22011KT 28/19 A2979 RMK A01 T02830194  RH  058%=      5-min Rain = 0
KME1 281649Z 22009KT 28/20 A2979 RMK A01 T02840196  RH  059%=      5-min Rain = 0
KME1 281650Z 22009KT 29/21 A2979 RMK A01 T02850205  RH  062%=      5-min Rain = 0
KME1 281651Z 23013KT 29/20 A2979 RMK A01 T02870203  RH  060%=      5-min Rain = 0
KME1 281652Z 22013KT 29/19 A2979 RMK A01 T02870194  RH  057%=      5-min Rain = 0
KME1 281653Z 22009KT 29/20 A2979 RMK A01 T02860195  RH  058%=      5-min Rain = 0
KME1 281654Z 22011KT 29/20 A2979 RMK A01 T02860198  RH  059%=      5-min Rain = 0
KME1 281655Z 22012KT 29/20 A2979 RMK A01 T02850197  RH  059%=      5-min Rain = 0
KME1 281656Z 22008KT 29/20 A2979 RMK A01 T02850197  RH  059%=      5-min Rain = 0
KME1 281657Z 23011KT 29/20 A2979 RMK A01 T02860202  RH  060%=      5-min Rain = 0
KME1 281658Z 23010KT 29/20 A2979 RMK A01 T02870197  RH  058%=      5-min Rain = 0
KME1 281659Z 23011KT 29/19 A2979 RMK A01 T02870191  RH  056%=      5-min Rain = 0
KME1 281700Z 22010KT 29/19 A2979 RMK A01 T02870188  RH  055%=      5-min Rain = 0
KME1 281701Z 24009KT 29/19 A2979 RMK A01 T02870193  RH  057%=      5-min Rain = 0
KME1 281702Z 22010KT 29/20 A2979 RMK A01 T02880198  RH  058%=      5-min Rain = 0
KME1 281703Z 22010KT 29/20 A2979 RMK A01 T02890197  RH  058%=      5-min Rain = 0
KME1 281704Z 22009KT 29/20 A2979 RMK A01 T02900196  RH  057%=      5-min Rain = 0
KME1 281705Z 21009KT 29/20 A2979 RMK A01 T02910200  RH  058%=      5-min Rain = 0
KME1 281706Z 20008KT 29/20 A2979 RMK A01 T02920201  RH  058%=      5-min Rain = 0
KME1 281707Z 23011KT 29/19 A2979 RMK A01 T02930192  RH  054%=      5-min Rain = 0
KME1 281708Z 24008KT 29/18 A2979 RMK A01 T02930183  RH  052%=      5-min Rain = 0
KME1 281709Z 22009KT 29/19 A2979 RMK A01 T02930188  RH  053%=      5-min Rain = 0
KME1 281710Z 23008KT 29/19 A2979 RMK A01 T02930187  RH  053%=      5-min Rain = 0
KME1 281711Z 24008KT 29/19 A2979 RMK A01 T02930185  RH  052%=      5-min Rain = 0
KME1 281712Z 23009KT 29/19 A2978 RMK A01 T02930189  RH  054%=      5-min Rain = 0
KME1 281713Z 23005KT 29/19 A2979 RMK A01 T02940193  RH  055%=      5-min Rain = 0
KME1 281714Z 20009G14KT 30/19 A2978 RMK A01 T02950193  RH  054%=      5-min Rain = 0
KME1 281715Z 22008KT 29/19 A2978 RMK A01 T02940187  RH  052%=      5-min Rain = 0
KME1 281716Z 23007KT 29/19 A2978 RMK A01 T02930190  RH  054%=      5-min Rain = 0
KME1 281717Z 21007KT 29/19 A2978 RMK A01 T02930186  RH  053%=      5-min Rain = 0
KME1 281718Z 24008KT 29/19 A2978 RMK A01 T02930188  RH  053%=      5-min Rain = 0
KME1 281719Z 25010KT 29/18 A2978 RMK A01 T02940176  RH  049%=      5-min Rain = 0
KME1 281720Z 23009KT 30/18 A2978 RMK A01 T02950183  RH  051%=      5-min Rain = 0
KME1 281721Z 24008KT 30/19 A2978 RMK A01 T02950187  RH  052%=      5-min Rain = 0
KME1 281722Z 24006KT 30/19 A2978 RMK A01 T02960188  RH  052%=      5-min Rain = 0
KME1 281723Z 23007KT 30/19 A2978 RMK A01 T02970188  RH  052%=      5-min Rain = 0
KME1 281724Z 25008KT 30/19 A2978 RMK A01 T02980189  RH  052%=      5-min Rain = 0
KME1 281725Z 26008KT 30/18 A2978 RMK A01 T02980179  RH  049%=      5-min Rain = 0
KME1 281726Z 24007KT 30/18 A2978 RMK A01 T02970176  RH  048%=      5-min Rain = 0
KME1 281727Z 23012KT 30/19 A2978 RMK A01 T02960186  RH  051%=      5-min Rain = 0
KME1 281728Z 22011KT 30/18 A2978 RMK A01 T02960184  RH  051%=      5-min Rain = 0
KME1 281729Z 22010KT 30/19 A2978 RMK A01 T02950187  RH  052%=      5-min Rain = 0
KME1 281730Z 22011KT 30/19 A2978 RMK A01 T02950189  RH  053%=      5-min Rain = 0
KME1 281731Z 24009KT 29/18 A2978 RMK A01 T02940183  RH  051%=      5-min Rain = 0
KME1 281732Z 22006KT 29/19 A2978 RMK A01 T02940186  RH  052%=      5-min Rain = 0
KME1 281733Z 22009KT 30/19 A2978 RMK A01 T02960189  RH  053%=      5-min Rain = 0
KME1 281734Z 24008KT 30/18 A2978 RMK A01 T02980183  RH  050%=      5-min Rain = 0
KME1 281735Z 24010G15KT 30/19 A2978 RMK A01 T02990185  RH  051%=      5-min Rain = 0
KME1 281736Z 23008KT 30/18 A2978 RMK A01 T03000182  RH  049%=      5-min Rain = 0
KME1 281737Z 22009KT 30/19 A2978 RMK A01 T03000187  RH  051%=      5-min Rain = 0
KME1 281738Z 23009KT 30/19 A2978 RMK A01 T03000186  RH  051%=      5-min Rain = 0
KME1 281739Z 23007KT 30/19 A2978 RMK A01 T02990187  RH  051%=      5-min Rain = 0
KME1 281740Z 22011KT 30/19 A2978 RMK A01 T03010192  RH  052%=      5-min Rain = 0
KME1 281741Z 21012KT 30/18 A2978 RMK A01 T03010179  RH  048%=      5-min Rain = 0
KME1 281742Z 21009KT 30/18 A2978 RMK A01 T02980180  RH  049%=      5-min Rain = 0
KME1 281743Z 23010KT 30/19 A2978 RMK A01 T02970187  RH  052%=      5-min Rain = 0
KME1 281744Z 22008KT 30/19 A2978 RMK A01 T02970189  RH  052%=      5-min Rain = 0
KME1 281745Z 24006KT 30/19 A2978 RMK A01 T02980191  RH  053%=      5-min Rain = 0
KME1 281746Z 22006KT 30/19 A2978 RMK A01 T03000189  RH  051%=      5-min Rain = 0
KME1 281747Z 21007KT 30/19 A2978 RMK A01 T03000189  RH  051%=      5-min Rain = 0
KME1 281748Z 22010KT 30/18 A2978 RMK A01 T03000183  RH  049%=      5-min Rain = 0
KME1 281749Z 20011KT 30/18 A2978 RMK A01 T03000179  RH  048%=      5-min Rain = 0
KME1 281750Z 20010KT 30/18 A2978 RMK A01 T02990177  RH  048%=      5-min Rain = 0
KME1 281751Z 20008KT 30/17 A2978 RMK A01 T02980172  RH  047%=      5-min Rain = 0
KME1 281752Z 20007KT 30/17 A2978 RMK A01 T02970168  RH  046%=      5-min Rain = 0
KME1 281753Z 21007KT 30/17 A2978 RMK A01 T02970170  RH  046%=      5-min Rain = 0
KME1 281754Z 23009KT 30/18 A2978 RMK A01 T02980177  RH  048%=      5-min Rain = 0
KME1 281755Z 23007KT 30/18 A2978 RMK A01 T03000178  RH  048%=      5-min Rain = 0
KME1 281756Z 21008KT 30/18 A2978 RMK A01 T03010176  RH  047%=      5-min Rain = 0
KME1 281757Z 22008KT 30/18 A2978 RMK A01 T03010178  RH  048%=      5-min Rain = 0
KME1 281758Z 23006KT 30/17 A2977 RMK A01 T03000168  RH  045%=      5-min Rain = 0
KME1 281759Z 22005KT 30/18 A2977 RMK A01 T03000175  RH  047%=      5-min Rain = 0
KME1 281800Z 21006KT 30/18 A2977 RMK A01 T03000182  RH  049%=      5-min Rain = 0
KME1 281801Z 20009KT 30/18 A2977 RMK A01 T03020179  RH  048%=      5-min Rain = 0
KME1 281802Z 20008KT 30/18 A2977 RMK A01 T03010178  RH  048%=      5-min Rain = 0
KME1 281803Z 22007KT 30/19 A2977 RMK A01 T02990185  RH  050%=      5-min Rain = 0
KME1 281804Z 24009KT 30/19 A2977 RMK A01 T03010190  RH  051%=      5-min Rain = 0
KME1 281805Z 24008KT 30/18 A2977 RMK A01 T03030177  RH  047%=      5-min Rain = 0
KME1 281806Z 22010KT 30/17 A2977 RMK A01 T03040174  RH  046%=      5-min Rain = 0
KME1 281807Z 22009KT 30/17 A2977 RMK A01 T03030171  RH  045%=      5-min Rain = 0
KME1 281808Z 21008KT 30/18 A2977 RMK A01 T03030178  RH  047%=      5-min Rain = 0
KME1 281809Z 22007KT 30/18 A2977 RMK A01 T03030179  RH  048%=      5-min Rain = 0
KME1 281810Z 23011KT 30/18 A2977 RMK A01 T03030175  RH  046%=      5-min Rain = 0
KME1 281811Z 22006KT 30/17 A2977 RMK A01 T03030174  RH  046%=      5-min Rain = 0
KME1 281812Z 23006G12KT 30/18 A2977 RMK A01 T03040178  RH  047%=      5-min Rain = 0
KME1 281813Z 24011KT 31/17 A2977 RMK A01 T03050172  RH  045%=      5-min Rain = 0
KME1 281814Z 24007KT 31/17 A2977 RMK A01 T03050166  RH  043%=      5-min Rain = 0
KME1 281815Z 21008KT 31/17 A2977 RMK A01 T03060168  RH  044%=      5-min Rain = 0
KME1 281816Z 22011KT 31/17 A2977 RMK A01 T03050170  RH  044%=      5-min Rain = 0
KME1 281817Z 22010KT 30/17 A2977 RMK A01 T03040167  RH  044%=      5-min Rain = 0
KME1 281818Z 21008KT 30/17 A2977 RMK A01 T03030172  RH  045%=      5-min Rain = 0
KME1 281819Z 21009KT 30/18 A2977 RMK A01 T03030176  RH  047%=      5-min Rain = 0
KME1 281820Z 22009KT 30/17 A2977 RMK A01 T03020165  RH  043%=      5-min Rain = 0
KME1 281821Z 24007KT 30/18 A2977 RMK A01 T03020175  RH  046%=      5-min Rain = 0
KME1 281822Z 23011KT 30/17 A2977 RMK A01 T03030174  RH  046%=      5-min Rain = 0
KME1 281823Z 21011KT 31/17 A2977 RMK A01 T03050174  RH  045%=      5-min Rain = 0
KME1 281824Z 21009KT 31/18 A2977 RMK A01 T03050175  RH  046%=      5-min Rain = 0
KME1 281825Z 22009KT 30/18 A2977 RMK A01 T03040176  RH  046%=      5-min Rain = 0
KME1 281826Z 24012KT 30/17 A2977 RMK A01 T03040174  RH  046%=      5-min Rain = 0
KME1 281827Z 23011KT 31/17 A2977 RMK A01 T03050166  RH  043%=      5-min Rain = 0
KME1 281828Z 23007KT 31/17 A2977 RMK A01 T03060165  RH  043%=      5-min Rain = 0
KME1 281829Z 22008KT 31/17 A2977 RMK A01 T03060168  RH  044%=      5-min Rain = 0
KME1 281830Z 21009KT 31/17 A2977 RMK A01 T03070173  RH  045%=      5-min Rain = 0
KME1 281831Z 20011KT 31/17 A2976 RMK A01 T03070172  RH  044%=      5-min Rain = 0
KME1 281832Z 21008KT 31/18 A2976 RMK A01 T03060175  RH  045%=      5-min Rain = 0
KME1 281833Z 21008KT 31/17 A2976 RMK A01 T03050165  RH  043%=      5-min Rain = 0
KME1 281834Z 21006KT 31/18 A2976 RMK A01 T03050175  RH  046%=      5-min Rain = 0
KME1 281835Z 22008KT 31/18 A2976 RMK A01 T03050177  RH  046%=      5-min Rain = 0
KME1 281836Z 23010KT 31/18 A2976 RMK A01 T03070178  RH  046%=      5-min Rain = 0
KME1 281837Z 21008KT 31/17 A2976 RMK A01 T03080172  RH  044%=      5-min Rain = 0
KME1 281838Z 20008KT 31/18 A2976 RMK A01 T03080175  RH  045%=      5-min Rain = 0
KME1 281839Z 20007G14KT 31/17 A2976 RMK A01 T03080172  RH  044%=      5-min Rain = 0
KME1 281840Z 23014KT 31/17 A2976 RMK A01 T03080171  RH  044%=      5-min Rain = 0
KME1 281841Z 26012KT 31/16 A2976 RMK A01 T03070158  RH  041%=      5-min Rain = 0
KME1 281842Z 26009KT 31/16 A2976 RMK A01 T03080155  RH  039%=      5-min Rain = 0
KME1 281843Z 25007KT 31/16 A2976 RMK A01 T03090158  RH  040%=      5-min Rain = 0
KME1 281844Z 24005KT 31/15 A2976 RMK A01 T03100152  RH  038%=      5-min Rain = 0
KME1 281845Z 24004KT 31/16 A2976 RMK A01 T03100156  RH  040%=      5-min Rain = 0
KME1 281846Z 24008G15KT 31/17 A2976 RMK A01 T03120169  RH  042%=      5-min Rain = 0
KME1 281847Z 21011KT 31/17 A2976 RMK A01 T03130167  RH  041%=      5-min Rain = 0
KME1 281848Z 21010KT 31/17 A2976 RMK A01 T03110168  RH  042%=      5-min Rain = 0
KME1 281849Z 21007KT 31/16 A2976 RMK A01 T03090163  RH  042%=      5-min Rain = 0
KME1 281850Z 22005KT 31/16 A2976 RMK A01 T03080164  RH  042%=      5-min Rain = 0
KME1 281851Z 22007KT 31/17 A2976 RMK A01 T03080173  RH  044%=      5-min Rain = 0
KME1 281852Z 25011KT 31/16 A2976 RMK A01 T03100158  RH  040%=      5-min Rain = 0
KME1 281853Z 25010KT 31/14 A2975 RMK A01 T03120138  RH  035%=      5-min Rain = 0
KME1 281854Z 26009KT 31/14 A2975 RMK A01 T03130140  RH  035%=      5-min Rain = 0
KME1 281855Z 25009KT 31/15 A2975 RMK A01 T03140147  RH  036%=      5-min Rain = 0
KME1 281856Z 24010KT 32/16 A2975 RMK A01 T03150156  RH  038%=      5-min Rain = 0
KME1 281857Z 23010G15KT 32/17 A2975 RMK A01 T03150165  RH  040%=      5-min Rain = 0
KME1 281858Z 25011KT 32/16 A2975 RMK A01 T03150160  RH  039%=      5-min Rain = 0
KME1 281859Z 24010KT 32/16 A2976 RMK A01 T03150158  RH  039%=      5-min Rain = 0
KME1 281900Z 22009KT 31/16 A2975 RMK A01 T03140160  RH  040%=      5-min Rain = 0
KME1 281901Z 22006KT 31/16 A2975 RMK A01 T03130158  RH  039%=      5-min Rain = 0
KME1 281902Z 22004KT 31/15 A2975 RMK A01 T03120150  RH  037%=      5-min Rain = 0
KME1 281903Z 24004G9KT 31/15 A2975 RMK A01 T03120153  RH  038%=      5-min Rain = 0
KME1 281904Z 24009G14KT 31/15 A2975 RMK A01 T03130149  RH  037%=      5-min Rain = 0
KME1 281905Z 23007KT 31/15 A2975 RMK A01 T03140154  RH  038%=      5-min Rain = 0
KME1 281906Z 25012G17KT 32/14 A2975 RMK A01 T03160140  RH  035%=      5-min Rain = 0
KME1 281907Z 26010KT 32/13 A2975 RMK A01 T03160132  RH  033%=      5-min Rain = 0
KME1 281908Z 25008KT 32/13 A2975 RMK A01 T03160131  RH  033%=      5-min Rain = 0
KME1 281909Z 25006KT 32/13 A2975 RMK A01 T03150129  RH  032%=      5-min Rain = 0
KME1 281910Z 23007KT 32/15 A2975 RMK A01 T03150151  RH  037%=      5-min Rain = 0
KME1 281911Z 22008KT 32/15 A2975 RMK A01 T03160152  RH  037%=      5-min Rain = 0
KME1 281912Z 22008KT 32/15 A2975 RMK A01 T03150149  RH  037%=      5-min Rain = 0
KME1 281913Z 24009KT 32/15 A2975 RMK A01 T03150146  RH  036%=      5-min Rain = 0
KME1 281914Z 22007KT 32/15 A2974 RMK A01 T03150146  RH  036%=      5-min Rain = 0
KME1 281915Z 21007KT 32/14 A2974 RMK A01 T03150141  RH  035%=      5-min Rain = 0
KME1 281916Z 20010KT 32/13 A2974 RMK A01 T03160128  RH  032%=      5-min Rain = 0
KME1 281917Z 23013KT 32/13 A2974 RMK A01 T03150126  RH  031%=      5-min Rain = 0
KME1 281918Z 25011KT 32/13 A2975 RMK A01 T03150125  RH  031%=      5-min Rain = 0
KME1 281919Z 26010KT 32/12 A2974 RMK A01 T03150117  RH  030%=      5-min Rain = 0
KME1 281920Z 26011KT 32/11 A2975 RMK A01 T03170109  RH  028%=      5-min Rain = 0
KME1 281921Z 24010KT 32/10 A2975 RMK A01 T03170103  RH  027%=      5-min Rain = 0
KME1 281922Z 23008KT 32/11 A2975 RMK A01 T03170106  RH  027%=      5-min Rain = 0
KME1 281923Z 23007KT 32/12 A2974 RMK A01 T03180121  RH  030%=      5-min Rain = 0
KME1 281924Z 26005KT 32/12 A2974 RMK A01 T03190120  RH  030%=      5-min Rain = 0
KME1 281925Z 28004KT 32/14 A2974 RMK A01 T03190139  RH  034%=      5-min Rain = 0
KME1 281926Z 25005KT 32/14 A2974 RMK A01 T03210140  RH  034%=      5-min Rain = 0
KME1 281927Z 23009KT 32/14 A2974 RMK A01 T03210135  RH  032%=      5-min Rain = 0
KME1 281928Z 23010KT 32/14 A2974 RMK A01 T03210139  RH  033%=      5-min Rain = 0
KME1 281929Z 25007KT 32/15 A2974 RMK A01 T03210145  RH  035%=      5-min Rain = 0
KME1 281930Z 26007KT 32/14 A2974 RMK A01 T03200136  RH  033%=      5-min Rain = 0
KME1 281931Z 24007KT 32/14 A2974 RMK A01 T03210138  RH  033%=      5-min Rain = 0
KME1 281932Z 25007KT 32/13 A2974 RMK A01 T03220133  RH  032%=      5-min Rain = 0
KME1 281933Z 26006KT 32/13 A2974 RMK A01 T03210130  RH  031%=      5-min Rain = 0
KME1 281934Z 23005KT 32/14 A2974 RMK A01 T03210137  RH  033%=      5-min Rain = 0
KME1 281935Z 21004KT 32/13 A2974 RMK A01 T03210130  RH  031%=      5-min Rain = 0
KME1 281936Z 27005G12KT 32/14 A2974 RMK A01 T03220135  RH  032%=      5-min Rain = 0
KME1 281937Z 26009KT 32/12 A2974 RMK A01 T03230115  RH  028%=      5-min Rain = 0
KME1 281938Z 24010KT 32/11 A2974 RMK A01 T03240111  RH  027%=      5-min Rain = 0
KME1 281939Z 23009KT 32/12 A2974 RMK A01 T03230124  RH  030%=      5-min Rain = 0
KME1 281940Z 23009KT 32/13 A2974 RMK A01 T03230125  RH  030%=      5-min Rain = 0
KME1 281941Z 22009KT 32/13 A2974 RMK A01 T03210131  RH  032%=      5-min Rain = 0
KME1 281942Z 22005KT 32/14 A2974 RMK A01 T03190141  RH  034%=      5-min Rain = 0
KME1 281943Z 22004KT 32/13 A2974 RMK A01 T03190128  RH  031%=      5-min Rain = 0
KME1 281944Z 30005KT 32/12 A2974 RMK A01 T03200115  RH  028%=      5-min Rain = 0
KME1 281945Z 28007KT 32/13 A2974 RMK A01 T03210127  RH  031%=      5-min Rain = 0
KME1 281946Z 25008KT 32/12 A2974 RMK A01 T03220119  RH  029%=      5-min Rain = 0
KME1 281947Z 27005KT 32/10 A2974 RMK A01 T03230101  RH  026%=      5-min Rain = 0
KME1 281948Z 26011KT 32/10 A2974 RMK A01 T03220102  RH  026%=      5-min Rain = 0
KME1 281949Z 26010KT 32/10 A2974 RMK A01 T03210096  RH  025%=      5-min Rain = 0
KME1 281950Z 29010KT 32/11 A2974 RMK A01 T03210105  RH  027%=      5-min Rain = 0
KME1 281951Z 29010KT 32/10 A2974 RMK A01 T03200103  RH  026%=      5-min Rain = 0
KME1 281952Z 27007KT 32/11 A2974 RMK A01 T03200108  RH  027%=      5-min Rain = 0
KME1 281953Z 25010KT 32/10 A2974 RMK A01 T03200102  RH  026%=      5-min Rain = 0
KME1 281954Z 24008KT 32/09 A2974 RMK A01 T03210094  RH  025%=      5-min Rain = 0
KME1 281955Z 24007KT 32/11 A2974 RMK A01 T03220113  RH  028%=      5-min Rain = 0
KME1 281956Z 25006KT 32/12 A2974 RMK A01 T03220123  RH  030%=      5-min Rain = 0
KME1 281957Z 27006KT 32/11 A2974 RMK A01 T03240106  RH  026%=      5-min Rain = 0
KME1 281958Z 26004KT 32/12 A2974 RMK A01 T03230116  RH  028%=      5-min Rain = 0
KME1 281959Z 23004KT 32/13 A2974 RMK A01 T03230130  RH  031%=      5-min Rain = 0
KME1 282000Z 23004KT 32/13 A2973 RMK A01 T03240130  RH  031%=      5-min Rain = 0
KME1 282001Z 23007KT 33/13 A2973 RMK A01 T03260131  RH  031%=      5-min Rain = 0
KME1 282002Z 23007KT 33/14 A2973 RMK A01 T03260138  RH  032%=      5-min Rain = 0
KME1 282003Z 24006KT 33/13 A2973 RMK A01 T03250128  RH  030%=      5-min Rain = 0
KME1 282004Z 28005KT 32/13 A2973 RMK A01 T03230127  RH  030%=      5-min Rain = 0
KME1 282005Z 25006KT 32/13 A2973 RMK A01 T03220128  RH  031%=      5-min Rain = 0
KME1 282006Z 28007KT 32/12 A2973 RMK A01 T03230124  RH  030%=      5-min Rain = 0
KME1 282007Z 25005KT 32/14 A2973 RMK A01 T03240135  RH  032%=      5-min Rain = 0
KME1 282008Z 23005KT 33/14 A2973 RMK A01 T03250137  RH  032%=      5-min Rain = 0
KME1 282009Z 25005KT 33/13 A2973 RMK A01 T03250130  RH  030%=      5-min Rain = 0
KME1 282010Z 25006KT 33/13 A2973 RMK A01 T03260132  RH  031%=      5-min Rain = 0
KME1 282011Z 24006KT 33/15 A2973 RMK A01 T03270149  RH  034%=      5-min Rain = 0
KME1 282012Z 22007KT 33/14 A2973 RMK A01 T03290142  RH  032%=      5-min Rain = 0
KME1 282013Z 21009KT 33/14 A2973 RMK A01 T03270136  RH  032%=      5-min Rain = 0
KME1 282014Z 21006KT 32/14 A2973 RMK A01 T03230138  RH  033%=      5-min Rain = 0
KME1 282015Z 21006KT 32/14 A2973 RMK A01 T03210144  RH  034%=      5-min Rain = 0
KME1 282016Z 22004KT 32/14 A2973 RMK A01 T03210142  RH  034%=      5-min Rain = 0
KME1 282017Z 25002KT 32/14 A2973 RMK A01 T03210137  RH  033%=      5-min Rain = 0
KME1 282018Z 24005KT 32/14 A2973 RMK A01 T03240142  RH  033%=      5-min Rain = 0
KME1 282019Z 25006KT 33/15 A2973 RMK A01 T03270149  RH  034%=      5-min Rain = 0
KME1 282020Z 24006KT 33/12 A2973 RMK A01 T03290124  RH  029%=      5-min Rain = 0
KME1 282021Z 25007KT 33/13 A2973 RMK A01 T03280125  RH  029%=      5-min Rain = 0
KME1 282022Z 26008KT 33/12 A2973 RMK A01 T03280121  RH  028%=      5-min Rain = 0
KME1 282023Z 25009KT 33/11 A2973 RMK A01 T03270113  RH  027%=      5-min Rain = 0
KME1 282024Z 26011KT 33/11 A2973 RMK A01 T03260111  RH  027%=      5-min Rain = 0
KME1 282025Z 26007KT 33/11 A2973 RMK A01 T03250108  RH  026%=      5-min Rain = 0
KME1 282026Z 25007KT 32/11 A2973 RMK A01 T03240112  RH  027%=      5-min Rain = 0
KME1 282027Z 25008KT 32/12 A2973 RMK A01 T03240115  RH  028%=      5-min Rain = 0
KME1 282028Z 22007KT 33/11 A2973 RMK A01 T03250112  RH  027%=      5-min Rain = 0
KME1 282029Z 21007KT 33/12 A2973 RMK A01 T03250116  RH  028%=      5-min Rain = 0
KME1 282030Z 23008KT 32/12 A2973 RMK A01 T03240124  RH  030%=      5-min Rain = 0
KME1 282031Z 24009KT 32/12 A2973 RMK A01 T03230121  RH  029%=      5-min Rain = 0
KME1 282032Z 25008KT 32/10 A2973 RMK A01 T03230104  RH  026%=      5-min Rain = 0
KME1 282033Z 25007KT 32/10 A2973 RMK A01 T03230103  RH  026%=      5-min Rain = 0
KME1 282034Z 25006KT 32/11 A2973 RMK A01 T03230108  RH  027%=      5-min Rain = 0
KME1 282035Z 24008KT 32/11 A2973 RMK A01 T03240112  RH  027%=      5-min Rain = 0
KME1 282036Z 24007KT 32/12 A2973 RMK A01 T03240117  RH  028%=      5-min Rain = 0
KME1 282037Z 23005KT 33/12 A2973 RMK A01 T03250119  RH  029%=      5-min Rain = 0
KME1 282038Z 25006KT 33/12 A2973 RMK A01 T03250120  RH  029%=      5-min Rain = 0
KME1 282039Z 24005KT 33/12 A2973 RMK A01 T03260117  RH  028%=      5-min Rain = 0
KME1 282040Z 24009KT 33/13 A2973 RMK A01 T03270125  RH  029%=      5-min Rain = 0
KME1 282041Z 26009KT 33/12 A2973 RMK A01 T03280124  RH  029%=      5-min Rain = 0
KME1 282042Z 22009KT 33/13 A2973 RMK A01 T03290126  RH  029%=      5-min Rain = 0
KME1 282043Z 26008KT 33/11 A2973 RMK A01 T03280110  RH  026%=      5-min Rain = 0
KME1 282044Z 26006KT 33/11 A2973 RMK A01 T03250111  RH  027%=      5-min Rain = 0
KME1 282045Z 26009KT 32/11 A2973 RMK A01 T03240114  RH  028%=      5-min Rain = 0
KME1 282046Z 25008KT 32/11 A2973 RMK A01 T03240106  RH  026%=      5-min Rain = 0
KME1 282047Z 26008G13KT 32/13 A2972 RMK A01 T03230125  RH  030%=      5-min Rain = 0
KME1 282048Z 27010KT 32/12 A2972 RMK A01 T03240121  RH  029%=      5-min Rain = 0
KME1 282049Z 27008KT 32/12 A2972 RMK A01 T03240123  RH  029%=      5-min Rain = 0
KME1 282050Z 26006KT 32/13 A2973 RMK A01 T03240134  RH  032%=      5-min Rain = 0
KME1 282051Z 26007KT 33/12 A2972 RMK A01 T03250123  RH  029%=      5-min Rain = 0
KME1 282052Z 26005KT 33/12 A2972 RMK A01 T03250117  RH  028%=      5-min Rain = 0
KME1 282053Z 27005KT 33/12 A2972 RMK A01 T03250118  RH  028%=      5-min Rain = 0
KME1 282054Z 24002KT 32/10 A2972 RMK A01 T03240101  RH  025%=      5-min Rain = 0
KME1 282055Z 22003KT 33/12 A2972 RMK A01 T03260121  RH  029%=      5-min Rain = 0
KME1 282056Z 24003KT 33/11 A2972 RMK A01 T03270114  RH  027%=      5-min Rain = 0
KME1 282057Z 28006KT 33/13 A2972 RMK A01 T03280128  RH  030%=      5-min Rain = 0
KME1 282058Z 30004KT 33/11 A2972 RMK A01 T03290111  RH  026%=      5-min Rain = 0
KME1 282059Z 27006KT 33/12 A2972 RMK A01 T03280121  RH  028%=      5-min Rain = 0
KME1 282100Z 27009KT 33/12 A2972 RMK A01 T03280118  RH  028%=      5-min Rain = 0
KME1 282101Z 28006KT 33/11 A2972 RMK A01 T03260111  RH  027%=      5-min Rain = 0
KME1 282102Z 30006KT 33/10 A2972 RMK A01 T03250102  RH  026%=      5-min Rain = 0
KME1 282103Z 27006KT 32/11 A2972 RMK A01 T03240109  RH  027%=      5-min Rain = 0
KME1 282104Z 26005KT 32/12 A2972 RMK A01 T03240121  RH  029%=      5-min Rain = 0
KME1 282105Z 22007KT 33/13 A2972 RMK A01 T03250131  RH  031%=      5-min Rain = 0
KME1 282106Z 21006KT 33/13 A2972 RMK A01 T03250129  RH  030%=      5-min Rain = 0
KME1 282107Z 20004KT 32/13 A2972 RMK A01 T03240126  RH  030%=      5-min Rain = 0
KME1 282108Z 21003KT 32/14 A2972 RMK A01 T03240137  RH  032%=      5-min Rain = 0
KME1 282109Z 23005KT 33/14 A2972 RMK A01 T03250138  RH  032%=      5-min Rain = 0
KME1 282110Z 25003KT 33/13 A2972 RMK A01 T03260130  RH  030%=      5-min Rain = 0
KME1 282111Z 31003KT 33/13 A2972 RMK A01 T03290129  RH  030%=      5-min Rain = 0
KME1 282112Z 28005KT 33/12 A2972 RMK A01 T03300122  RH  028%=      5-min Rain = 0
KME1 282113Z 28008KT 33/12 A2972 RMK A01 T03310119  RH  028%=      5-min Rain = 0
KME1 282114Z 28006KT 33/10 A2972 RMK A01 T03290101  RH  025%=      5-min Rain = 0
KME1 282115Z 28005KT 33/11 A2972 RMK A01 T03280113  RH  027%=      5-min Rain = 0
KME1 282116Z 27006KT 33/11 A2972 RMK A01 T03270109  RH  026%=      5-min Rain = 0
KME1 282117Z 28004KT 33/11 A2972 RMK A01 T03280107  RH  026%=      5-min Rain = 0
KME1 282118Z 30003KT 33/11 A2972 RMK A01 T03280110  RH  026%=      5-min Rain = 0
KME1 282119Z 31006KT 33/12 A2972 RMK A01 T03290115  RH  027%=      5-min Rain = 0
KME1 282120Z 31004KT 33/11 A2972 RMK A01 T03290110  RH  026%=      5-min Rain = 0
KME1 282121Z 30002KT 33/12 A2972 RMK A01 T03290115  RH  027%=      5-min Rain = 0
KME1 282122Z 25004KT 33/11 A2972 RMK A01 T03290113  RH  027%=      5-min Rain = 0
KME1 282123Z 26003KT 33/12 A2972 RMK A01 T03300118  RH  028%=      5-min Rain = 0
KME1 282124Z 26006KT 33/13 A2972 RMK A01 T03320133  RH  030%=      5-min Rain = 0
KME1 282125Z 26009KT 33/13 A2972 RMK A01 T03320126  RH  029%=      5-min Rain = 0
KME1 282126Z 23008KT 33/13 A2972 RMK A01 T03310129  RH  029%=      5-min Rain = 0
KME1 282127Z 21007KT 33/13 A2972 RMK A01 T03300127  RH  029%=      5-min Rain = 0
KME1 282128Z 23009KT 33/13 A2972 RMK A01 T03270129  RH  030%=      5-min Rain = 0
KME1 282129Z 21007KT 33/13 A2972 RMK A01 T03260126  RH  030%=      5-min Rain = 0
KME1 282130Z 20008KT 33/13 A2972 RMK A01 T03250129  RH  030%=      5-min Rain = 0
KME1 282131Z 21006G11KT 32/11 A2972 RMK A01 T03230114  RH  028%=      5-min Rain = 0
KME1 282132Z 21005KT 32/13 A2972 RMK A01 T03220130  RH  031%=      5-min Rain = 0
KME1 282133Z 24005KT 32/14 A2972 RMK A01 T03220140  RH  033%=      5-min Rain = 0
KME1 282134Z 24007KT 32/13 A2972 RMK A01 T03240130  RH  031%=      5-min Rain = 0
KME1 282135Z 25004KT 33/12 A2971 RMK A01 T03260124  RH  029%=      5-min Rain = 0
KME1 282136Z 32003KT 33/11 A2971 RMK A01 T03260110  RH  027%=      5-min Rain = 0
KME1 282137Z 25003KT 33/12 A2971 RMK A01 T03270123  RH  029%=      5-min Rain = 0
KME1 282138Z 23004KT 33/11 A2971 RMK A01 T03280113  RH  027%=      5-min Rain = 0
KME1 282139Z 25004KT 33/12 A2971 RMK A01 T03290116  RH  027%=      5-min Rain = 0
KME1 282140Z 26009KT 33/11 A2971 RMK A01 T03300108  RH  026%=      5-min Rain = 0
KME1 282141Z 27010KT 33/11 A2971 RMK A01 T03300110  RH  026%=      5-min Rain = 0
KME1 282142Z 24010KT 33/11 A2971 RMK A01 T03280110  RH  026%=      5-min Rain = 0
KME1 282143Z 24009KT 33/11 A2971 RMK A01 T03270107  RH  026%=      5-min Rain = 0
KME1 282144Z 25007KT 33/11 A2971 RMK A01 T03260107  RH  026%=      5-min Rain = 0
KME1 282145Z 26009KT 33/11 A2971 RMK A01 T03260111  RH  027%=      5-min Rain = 0
KME1 282146Z 29010KT 33/11 A2971 RMK A01 T03270105  RH  026%=      5-min Rain = 0
KME1 282147Z 27008KT 33/10 A2971 RMK A01 T03260099  RH  025%=      5-min Rain = 0
KME1 282148Z 25005KT 32/09 A2971 RMK A01 T03240088  RH  023%=      5-min Rain = 0
KME1 282149Z 26008KT 32/10 A2971 RMK A01 T03240100  RH  025%=      5-min Rain = 0
KME1 282150Z 26006KT 33/10 A2971 RMK A01 T03250098  RH  025%=      5-min Rain = 0
KME1 282151Z 27004KT 33/09 A2971 RMK A01 T03260088  RH  023%=      5-min Rain = 0
KME1 282152Z 30006KT 33/09 A2971 RMK A01 T03260088  RH  023%=      5-min Rain = 0
KME1 282153Z 32006KT 33/08 A2971 RMK A01 T03270084  RH  022%=      5-min Rain = 0
KME1 282154Z 34007KT 33/10 A2971 RMK A01 T03270097  RH  024%=      5-min Rain = 0
KME1 282155Z 33008KT 33/11 A2971 RMK A01 T03270112  RH  027%=      5-min Rain = 0
KME1 282156Z 26009KT 33/11 A2971 RMK A01 T03260113  RH  027%=      5-min Rain = 0
KME1 282157Z 28008KT 33/10 A2971 RMK A01 T03260103  RH  026%=      5-min Rain = 0
KME1 282158Z 27009G15KT 33/11 A2971 RMK A01 T03270110  RH  027%=      5-min Rain = 0
KME1 282159Z 28009KT 33/11 A2971 RMK A01 T03270106  RH  026%=      5-min Rain = 0
KME1 282200Z 30008KT 33/10 A2971 RMK A01 T03260100  RH  025%=      5-min Rain = 0
KME1 282201Z 30009KT 33/11 A2971 RMK A01 T03250112  RH  027%=      5-min Rain = 0
KME1 282202Z 29005KT 33/12 A2971 RMK A01 T03250115  RH  028%=      5-min Rain = 0
KME1 282203Z 30007KT 33/11 A2971 RMK A01 T03260105  RH  026%=      5-min Rain = 0
KME1 282204Z 30008KT 33/10 A2971 RMK A01 T03260104  RH  026%=      5-min Rain = 0
KME1 282205Z 29007KT 33/10 A2971 RMK A01 T03260095  RH  024%=      5-min Rain = 0
KME1 282206Z 29006KT 33/11 A2971 RMK A01 T03260106  RH  026%=      5-min Rain = 0
KME1 282207Z 29003KT 33/09 A2971 RMK A01 T03250094  RH  024%=      5-min Rain = 0
KME1 282208Z 27006KT 33/09 A2971 RMK A01 T03260089  RH  023%=      5-min Rain = 0
KME1 282209Z 29006KT 33/09 A2971 RMK A01 T03270093  RH  024%=      5-min Rain = 0
KME1 282210Z 28005KT 33/08 A2971 RMK A01 T03270082  RH  022%=      5-min Rain = 0
KME1 282211Z 30004KT 33/11 A2971 RMK A01 T03270105  RH  026%=      5-min Rain = 0
KME1 282212Z 32005KT 33/11 A2971 RMK A01 T03290108  RH  026%=      5-min Rain = 0
KME1 282213Z 28007KT 33/10 A2971 RMK A01 T03300104  RH  025%=      5-min Rain = 0
KME1 282214Z 27007KT 33/10 A2971 RMK A01 T03300100  RH  024%=      5-min Rain = 0
KME1 282215Z 27007KT 33/09 A2971 RMK A01 T03290092  RH  023%=      5-min Rain = 0
KME1 282216Z 25004KT 33/10 A2971 RMK A01 T03270095  RH  024%=      5-min Rain = 0
KME1 282217Z 29004KT 33/10 A2971 RMK A01 T03270096  RH  024%=      5-min Rain = 0
KME1 282218Z 31007KT 33/11 A297 RMK A01 T03270109  RH  026%=      5-min Rain = 0
KME1 282219Z 31006KT 33/10 A297 RMK A01 T03280095  RH  024%=      5-min Rain = 0
KME1 282220Z 31004KT 33/09 A297 RMK A01 T03260093  RH  024%=      5-min Rain = 0
KME1 282221Z 30005KT 33/11 A297 RMK A01 T03270107  RH  026%=      5-min Rain = 0
KME1 282222Z 31004KT 33/11 A297 RMK A01 T03260114  RH  027%=      5-min Rain = 0
KME1 282223Z 31005KT 33/11 A297 RMK A01 T03270109  RH  026%=      5-min Rain = 0
KME1 282224Z 29006KT 33/11 A297 RMK A01 T03280107  RH  026%=      5-min Rain = 0
KME1 282225Z 29004KT 33/11 A297 RMK A01 T03270108  RH  026%=      5-min Rain = 0
KME1 282226Z 28003KT 33/12 A297 RMK A01 T03270123  RH  029%=      5-min Rain = 0
KME1 282227Z 29007KT 33/11 A297 RMK A01 T03280113  RH  027%=      5-min Rain = 0
KME1 282228Z 26005KT 33/10 A297 RMK A01 T03290103  RH  025%=      5-min Rain = 0
KME1 282229Z 28003KT 33/11 A297 RMK A01 T03280112  RH  027%=      5-min Rain = 0
KME1 282230Z 30004KT 33/11 A297 RMK A01 T03280112  RH  027%=      5-min Rain = 0
KME1 282231Z 30006KT 33/11 A297 RMK A01 T03290107  RH  026%=      5-min Rain = 0
KME1 282232Z 31004KT 33/10 A297 RMK A01 T03280101  RH  025%=      5-min Rain = 0
KME1 282233Z 30005KT 33/11 A297 RMK A01 T03280107  RH  026%=      5-min Rain = 0
KME1 282234Z 26007KT 33/11 A297 RMK A01 T03270107  RH  026%=      5-min Rain = 0
KME1 282235Z 26005KT 33/12 A297 RMK A01 T03280120  RH  028%=      5-min Rain = 0
KME1 282236Z 27007KT 33/11 A297 RMK A01 T03280113  RH  027%=      5-min Rain = 0
KME1 282237Z 26008KT 33/10 A297 RMK A01 T03270100  RH  025%=      5-min Rain = 0
KME1 282238Z 26005KT 33/10 A297 RMK A01 T03260101  RH  025%=      5-min Rain = 0
KME1 282239Z 27003KT 33/12 A297 RMK A01 T03260118  RH  028%=      5-min Rain = 0
KME1 282240Z 29002KT 33/12 A297 RMK A01 T03270117  RH  028%=      5-min Rain = 0
KME1 282241Z 28002KT 33/10 A297 RMK A01 T03290096  RH  024%=      5-min Rain = 0
KME1 282242Z 29003KT 33/11 A297 RMK A01 T03300105  RH  025%=      5-min Rain = 0
KME1 282243Z 28005KT 33/11 A297 RMK A01 T03320108  RH  026%=      5-min Rain = 0
KME1 282244Z 27006KT 33/10 A297 RMK A01 T03320104  RH  025%=      5-min Rain = 0
KME1 282245Z 24005KT 33/10 A297 RMK A01 T03290102  RH  025%=      5-min Rain = 0
KME1 282246Z 22003KT 33/09 A297 RMK A01 T03280086  RH  022%=      5-min Rain = 0
KME1 282247Z 20001KT 33/09 A297 RMK A01 T03280093  RH  024%=      5-min Rain = 0
KME1 282248Z 08000KT 33/08 A297 RMK A01 T03270081  RH  022%=      5-min Rain = 0
KME1 282249Z 26001KT 33/09 A297 RMK A01 T03270089  RH  023%=      5-min Rain = 0
KME1 282250Z 24003KT 33/09 A297 RMK A01 T03270088  RH  023%=      5-min Rain = 0
KME1 282251Z 24002KT 33/08 A297 RMK A01 T03280081  RH  022%=      5-min Rain = 0
KME1 282252Z 29004KT 33/09 A297 RMK A01 T03290090  RH  023%=      5-min Rain = 0
KME1 282253Z 30002KT 33/08 A297 RMK A01 T03290078  RH  021%=      5-min Rain = 0
KME1 282254Z 33002KT 33/09 A297 RMK A01 T03290088  RH  023%=      5-min Rain = 0
KME1 282255Z 34002KT 33/11 A297 RMK A01 T03300113  RH  027%=      5-min Rain = 0
KME1 282256Z 30001KT 33/12 A297 RMK A01 T03320116  RH  027%=      5-min Rain = 0
KME1 282257Z 30002KT 33/12 A297 RMK A01 T03340121  RH  027%=      5-min Rain = 0
KME1 282258Z 29002KT 33/10 A297 RMK A01 T03340101  RH  024%=      5-min Rain = 0
KME1 282259Z 27002KT 34/10 A297 RMK A01 T03350103  RH  024%=      5-min Rain = 0
KME1 282300Z 00000KT 33/09 A297 RMK A01 T03340094  RH  023%=      5-min Rain = 0
KME1 282301Z 00000KT 34/09 A297 RMK A01 T03350092  RH  023%=      5-min Rain = 0
KME1 282302Z 36000KT 34/09 A297 RMK A01 T03360093  RH  022%=      5-min Rain = 0
KME1 282303Z 34001KT 34/09 A297 RMK A01 T03360089  RH  022%=      5-min Rain = 0
KME1 282304Z 30002KT 34/10 A297 RMK A01 T03360102  RH  024%=      5-min Rain = 0
KME1 282305Z 28000KT 34/10 A297 RMK A01 T03360104  RH  024%=      5-min Rain = 0
KME1 282306Z 00000KT 34/11 A297 RMK A01 T03370111  RH  025%=      5-min Rain = 0
KME1 282307Z 18002KT 34/12 A297 RMK A01 T03390115  RH  026%=      5-min Rain = 0
KME1 282308Z 19004KT 34/15 A297 RMK A01 T03390145  RH  031%=      5-min Rain = 0
KME1 282309Z 20004KT 34/14 A2969 RMK A01 T03370142  RH  031%=      5-min Rain = 0
KME1 282310Z 19005KT 33/15 A2969 RMK A01 T03320146  RH  033%=      5-min Rain = 0
KME1 282311Z 19005KT 33/16 A2969 RMK A01 T03250156  RH  036%=      5-min Rain = 0
KME1 282312Z 18005KT 32/15 A2969 RMK A01 T03200150  RH  036%=      5-min Rain = 0
KME1 282313Z 17004KT 32/16 A2969 RMK A01 T03170158  RH  038%=      5-min Rain = 0
KME1 282314Z 16004KT 32/16 A2969 RMK A01 T03160157  RH  038%=      5-min Rain = 0
KME1 282315Z 17002KT 32/15 A2969 RMK A01 T03150147  RH  036%=      5-min Rain = 0
KME1 282316Z 15002KT 32/16 A2969 RMK A01 T03170156  RH  038%=      5-min Rain = 0
KME1 282317Z 15002KT 32/14 A2969 RMK A01 T03190139  RH  034%=      5-min Rain = 0
KME1 282318Z 17002KT 32/15 A2969 RMK A01 T03210152  RH  036%=      5-min Rain = 0
KME1 282319Z 15004KT 32/15 A2969 RMK A01 T03230145  RH  034%=      5-min Rain = 0
KME1 282320Z 16004KT 32/15 A2969 RMK A01 T03230150  RH  035%=      5-min Rain = 0
KME1 282321Z 15004KT 32/15 A2969 RMK A01 T03220151  RH  036%=      5-min Rain = 0
KME1 282322Z 13004KT 32/15 A2969 RMK A01 T03200150  RH  036%=      5-min Rain = 0
KME1 282323Z 12003KT 32/15 A2969 RMK A01 T03200149  RH  036%=      5-min Rain = 0
KME1 282324Z 12002KT 32/14 A2969 RMK A01 T03200135  RH  033%=      5-min Rain = 0
KME1 282325Z 13001KT 32/13 A2969 RMK A01 T03200129  RH  031%=      5-min Rain = 0
KME1 282326Z 13002KT 32/16 A2969 RMK A01 T03220155  RH  037%=      5-min Rain = 0
KME1 282327Z 13003KT 32/15 A2969 RMK A01 T03240145  RH  034%=      5-min Rain = 0
KME1 282328Z 13004KT 32/16 A2969 RMK A01 T03230158  RH  037%=      5-min Rain = 0
KME1 282329Z 15005KT 32/16 A2969 RMK A01 T03230159  RH  037%=      5-min Rain = 0
KME1 282330Z 16007KT 32/15 A2969 RMK A01 T03210152  RH  036%=      5-min Rain = 0
KME1 282331Z 14006KT 32/15 A2969 RMK A01 T03190150  RH  036%=      5-min Rain = 0
KME1 282332Z 14005KT 32/15 A2969 RMK A01 T03170148  RH  036%=      5-min Rain = 0
KME1 282333Z 14004KT 32/14 A2969 RMK A01 T03160142  RH  035%=      5-min Rain = 0
KME1 282334Z 14005KT 32/15 A2969 RMK A01 T03160153  RH  037%=      5-min Rain = 0
KME1 282335Z 15005KT 32/15 A2969 RMK A01 T03160148  RH  036%=      5-min Rain = 0
KME1 282336Z 16004KT 32/16 A2969 RMK A01 T03160158  RH  039%=      5-min Rain = 0
KME1 282337Z 17003KT 32/17 A2969 RMK A01 T03150168  RH  041%=      5-min Rain = 0
KME1 282338Z 18004KT 31/17 A2969 RMK A01 T03140168  RH  042%=      5-min Rain = 0
KME1 282339Z 18005KT 31/16 A2969 RMK A01 T03130160  RH  040%=      5-min Rain = 0
KME1 282340Z 18004KT 31/15 A2969 RMK A01 T03110154  RH  039%=      5-min Rain = 0
KME1 282341Z 17004KT 31/16 A2969 RMK A01 T03100155  RH  039%=      5-min Rain = 0
KME1 282342Z 17004KT 31/16 A2969 RMK A01 T03100159  RH  040%=      5-min Rain = 0
KME1 282343Z 17004KT 31/17 A2969 RMK A01 T03100166  RH  042%=      5-min Rain = 0
KME1 282344Z 18003KT 31/16 A2969 RMK A01 T03110163  RH  041%=      5-min Rain = 0
KME1 282345Z 17003KT 31/17 A2969 RMK A01 T03110174  RH  044%=      5-min Rain = 0
KME1 282346Z 19003KT 31/17 A2969 RMK A01 T03110168  RH  042%=      5-min Rain = 0
KME1 282347Z 19003KT 31/16 A2969 RMK A01 T03100157  RH  040%=      5-min Rain = 0
KME1 282348Z 17003KT 31/16 A2969 RMK A01 T03110162  RH  041%=      5-min Rain = 0
KME1 282349Z 17005KT 31/17 A2969 RMK A01 T03100165  RH  042%=      5-min Rain = 0
KME1 282350Z 17005KT 31/16 A2969 RMK A01 T03110157  RH  039%=      5-min Rain = 0
KME1 282351Z 19005KT 31/15 A2969 RMK A01 T03100151  RH  038%=      5-min Rain = 0
KME1 282352Z 19005KT 31/15 A2969 RMK A01 T03100153  RH  038%=      5-min Rain = 0
KME1 282353Z 19004KT 31/16 A2969 RMK A01 T03100159  RH  040%=      5-min Rain = 0
KME1 282354Z 18004KT 31/16 A2969 RMK A01 T03080160  RH  041%=      5-min Rain = 0
KME1 282355Z 17004KT 31/16 A2969 RMK A01 T03080161  RH  041%=      5-min Rain = 0
KME1 282356Z 17004KT 31/16 A2969 RMK A01 T03080161  RH  041%=      5-min Rain = 0
KME1 282357Z 19003KT 31/16 A2969 RMK A01 T03080160  RH  041%=      5-min Rain = 0
KME1 282358Z 17003KT 31/16 A2969 RMK A01 T03090162  RH  041%=      5-min Rain = 0
KME1 282359Z 17004KT 31/16 A2969 RMK A01 T03090160  RH  041%=      5-min Rain = 0
KME1 290000Z 15004KT 31/15 A2969 RMK A01 T03100147  RH  037%=      5-min Rain = 0
KME1 290001Z 17003KT 31/14 A2969 RMK A01 T03120142  RH  036%=      5-min Rain = 0
KME1 290002Z 17003KT 31/14 A2969 RMK A01 T03130140  RH  035%=      5-min Rain = 0
KME1 290003Z 17003KT 31/15 A297 RMK A01 T03140146  RH  036%=      5-min Rain = 0
KME1 290004Z 17002KT 31/15 A297 RMK A01 T03140151  RH  037%=      5-min Rain = 0
KME1 290005Z 18002KT 31/14 A2969 RMK A01 T03140142  RH  035%=      5-min Rain = 0
KME1 290006Z 19002KT 32/15 A2969 RMK A01 T03150148  RH  036%=      5-min Rain = 0
KME1 290007Z 19002KT 32/17 A297 RMK A01 T03160170  RH  042%=      5-min Rain = 0
KME1 290008Z 16003KT 32/16 A297 RMK A01 T03160162  RH  040%=      5-min Rain = 0
KME1 290009Z 15002KT 32/14 A297 RMK A01 T03150144  RH  035%=      5-min Rain = 0
KME1 290010Z 15003KT 32/16 A297 RMK A01 T03160159  RH  039%=      5-min Rain = 0
KME1 290011Z 17004KT 32/17 A297 RMK A01 T03170168  RH  041%=      5-min Rain = 0
KME1 290012Z 18002KT 32/16 A297 RMK A01 T03180160  RH  039%=      5-min Rain = 0
KME1 290013Z 17001KT 32/15 A297 RMK A01 T03170154  RH  037%=      5-min Rain = 0
KME1 290014Z 15002KT 32/17 A297 RMK A01 T03170166  RH  040%=      5-min Rain = 0
KME1 290015Z 14002KT 32/17 A297 RMK A01 T03180167  RH  040%=      5-min Rain = 0
KME1 290016Z 15002KT 32/17 A297 RMK A01 T03190174  RH  042%=      5-min Rain = 0
KME1 290017Z 15003KT 32/17 A297 RMK A01 T03190169  RH  041%=      5-min Rain = 0
KME1 290018Z 15002KT 32/17 A297 RMK A01 T03200170  RH  041%=      5-min Rain = 0
KME1 290019Z 15002KT 32/15 A297 RMK A01 T03190148  RH  036%=      5-min Rain = 0
KME1 290020Z 17002KT 32/14 A297 RMK A01 T03190144  RH  035%=      5-min Rain = 0
KME1 290021Z 20003KT 32/15 A297 RMK A01 T03200152  RH  036%=      5-min Rain = 0
KME1 290022Z 20002KT 32/15 A297 RMK A01 T03200146  RH  035%=      5-min Rain = 0
KME1 290023Z 18002KT 32/16 A297 RMK A01 T03190156  RH  037%=      5-min Rain = 0
KME1 290024Z 20002KT 32/16 A297 RMK A01 T03170155  RH  038%=      5-min Rain = 0
KME1 290025Z 20003KT 32/16 A297 RMK A01 T03150163  RH  040%=      5-min Rain = 0
KME1 290026Z 20003KT 31/16 A297 RMK A01 T03130155  RH  038%=      5-min Rain = 0
KME1 290027Z 21005KT 31/16 A297 RMK A01 T03120161  RH  040%=      5-min Rain = 0
KME1 290028Z 22005KT 31/16 A297 RMK A01 T03100155  RH  039%=      5-min Rain = 0
KME1 290029Z 21005KT 31/16 A297 RMK A01 T03080157  RH  040%=      5-min Rain = 0
KME1 290030Z 21005KT 31/16 A297 RMK A01 T03050155  RH  040%=      5-min Rain = 0
KME1 290031Z 22004KT 30/16 A297 RMK A01 T03030155  RH  041%=      5-min Rain = 0
KME1 290032Z 22003KT 30/16 A297 RMK A01 T03010156  RH  041%=      5-min Rain = 0
KME1 290033Z 19002KT 30/14 A297 RMK A01 T03000136  RH  037%=      5-min Rain = 0
KME1 290034Z 19003KT 30/13 A297 RMK A01 T03020133  RH  036%=      5-min Rain = 0
KME1 290035Z 19004KT 30/14 A297 RMK A01 T03040140  RH  037%=      5-min Rain = 0
KME1 290036Z 19005KT 31/14 A297 RMK A01 T03050138  RH  036%=      5-min Rain = 0
KME1 290037Z 19005KT 31/14 A297 RMK A01 T03050142  RH  037%=      5-min Rain = 0
KME1 290038Z 19005KT 30/15 A297 RMK A01 T03040146  RH  038%=      5-min Rain = 0
KME1 290039Z 18004KT 30/15 A297 RMK A01 T03010147  RH  039%=      5-min Rain = 0
KME1 290040Z 16005KT 30/15 A297 RMK A01 T03000151  RH  040%=      5-min Rain = 0
KME1 290041Z 15005KT 30/16 A297 RMK A01 T02990159  RH  043%=      5-min Rain = 0
KME1 290042Z 15006KT 30/17 A297 RMK A01 T02990169  RH  046%=      5-min Rain = 0
KME1 290043Z 17006KT 30/17 A297 RMK A01 T02960170  RH  047%=      5-min Rain = 0
KME1 290044Z 15006KT 29/17 A297 RMK A01 T02930174  RH  049%=      5-min Rain = 0
KME1 290045Z 16006KT 29/18 A2971 RMK A01 T02910175  RH  050%=      5-min Rain = 0
KME1 290046Z 16007KT 29/18 A2971 RMK A01 T02910177  RH  050%=      5-min Rain = 0
KME1 290047Z 17006KT 29/18 A2971 RMK A01 T02910180  RH  051%=      5-min Rain = 0
KME1 290048Z 16007KT 29/18 A2971 RMK A01 T02900183  RH  052%=      5-min Rain = 0
KME1 290049Z 16006KT 29/18 A2971 RMK A01 T02880183  RH  053%=      5-min Rain = 0
KME1 290050Z 16007KT 29/18 A2971 RMK A01 T02860184  RH  054%=      5-min Rain = 0
KME1 290051Z 17009KT 29/18 A2971 RMK A01 T02850180  RH  053%=      5-min Rain = 0
KME1 290052Z 17008KT 29/18 A2971 RMK A01 T02860179  RH  052%=      5-min Rain = 0
KME1 290053Z 17007KT 29/18 A2971 RMK A01 T02860181  RH  053%=      5-min Rain = 0
KME1 290054Z 16007KT 29/18 A2971 RMK A01 T02850181  RH  053%=      5-min Rain = 0
KME1 290055Z 17009KT 29/18 A2971 RMK A01 T02850178  RH  052%=      5-min Rain = 0
KME1 290056Z 16006KT 29/18 A2971 RMK A01 T02850178  RH  052%=      5-min Rain = 0
KME1 290057Z 17008KT 29/18 A2971 RMK A01 T02850179  RH  053%=      5-min Rain = 0
KME1 290058Z 17007KT 28/18 A2971 RMK A01 T02840178  RH  053%=      5-min Rain = 0
KME1 290059Z 16007KT 28/18 A2971 RMK A01 T02840178  RH  052%=      5-min Rain = 0
KME1 290100Z 17006KT 28/18 A2971 RMK A01 T02840179  RH  053%=      5-min Rain = 0
KME1 290101Z 16007KT 28/18 A2971 RMK A01 T02840178  RH  052%=      5-min Rain = 0
KME1 290102Z 17007KT 28/18 A2971 RMK A01 T02840175  RH  052%=      5-min Rain = 0
KME1 290103Z 16006KT 29/18 A2971 RMK A01 T02850178  RH  052%=      5-min Rain = 0
KME1 290104Z 17005KT 28/18 A2971 RMK A01 T02840181  RH  054%=      5-min Rain = 0
KME1 290105Z 17004KT 28/18 A2971 RMK A01 T02820180  RH  054%=      5-min Rain = 0
KME1 290106Z 17005KT 28/18 A2971 RMK A01 T02820180  RH  054%=      5-min Rain = 0
KME1 290107Z 17007KT 28/18 A2971 RMK A01 T02810179  RH  054%=      5-min Rain = 0
KME1 290108Z 16006KT 28/18 A2971 RMK A01 T02810179  RH  054%=      5-min Rain = 0
KME1 290109Z 16006KT 28/18 A2971 RMK A01 T02800177  RH  053%=      5-min Rain = 0
KME1 290110Z 16006KT 28/18 A2971 RMK A01 T02800177  RH  054%=      5-min Rain = 0
KME1 290111Z 17006KT 28/18 A2971 RMK A01 T02790178  RH  054%=      5-min Rain = 0
KME1 290112Z 16005KT 28/18 A2971 RMK A01 T02790179  RH  054%=      5-min Rain = 0
KME1 290113Z 16005KT 28/18 A2971 RMK A01 T02780179  RH  055%=      5-min Rain = 0
KME1 290114Z 15004KT 28/18 A2971 RMK A01 T02770179  RH  055%=      5-min Rain = 0
KME1 290115Z 15005KT 28/18 A2971 RMK A01 T02770179  RH  055%=      5-min Rain = 0
KME1 290116Z 15005KT 28/18 A2971 RMK A01 T02760179  RH  055%=      5-min Rain = 0
KME1 290117Z 16004KT 28/18 A2971 RMK A01 T02760179  RH  055%=      5-min Rain = 0
KME1 290118Z 15004KT 28/18 A2971 RMK A01 T02760178  RH  055%=      5-min Rain = 0
KME1 290119Z 16004KT 28/18 A2971 RMK A01 T02750177  RH  055%=      5-min Rain = 0
KME1 290120Z 16005KT 28/18 A2971 RMK A01 T02750177  RH  055%=      5-min Rain = 0
KME1 290121Z 16004KT 27/18 A2971 RMK A01 T02740177  RH  055%=      5-min Rain = 0
KME1 290122Z 16006KT 27/18 A2971 RMK A01 T02730175  RH  055%=      5-min Rain = 0
KME1 290123Z 16004KT 27/18 A2972 RMK A01 T02730176  RH  055%=      5-min Rain = 0
KME1 290124Z 16004KT 27/18 A2972 RMK A01 T02720175  RH  055%=      5-min Rain = 0
KME1 290125Z 16005KT 27/18 A2972 RMK A01 T02720175  RH  055%=      5-min Rain = 0
KME1 290126Z 17004KT 27/18 A2972 RMK A01 T02720175  RH  056%=      5-min Rain = 0
KME1 290127Z 17004KT 27/17 A2972 RMK A01 T02710174  RH  056%=      5-min Rain = 0
KME1 290128Z 17004KT 27/17 A2972 RMK A01 T02710174  RH  055%=      5-min Rain = 0
KME1 290129Z 17004KT 27/17 A2972 RMK A01 T02700174  RH  056%=      5-min Rain = 0
KME1 290130Z 17004KT 27/17 A2972 RMK A01 T02700173  RH  056%=      5-min Rain = 0
KME1 290131Z 17004KT 27/17 A2972 RMK A01 T02700173  RH  055%=      5-min Rain = 0
KME1 290132Z 17004KT 27/17 A2972 RMK A01 T02700173  RH  055%=      5-min Rain = 0
KME1 290133Z 16004KT 27/17 A2972 RMK A01 T02700174  RH  056%=      5-min Rain = 0
KME1 290134Z 17004KT 27/17 A2972 RMK A01 T02690173  RH  056%=      5-min Rain = 0
KME1 290135Z 17004KT 27/17 A2972 RMK A01 T02680172  RH  056%=      5-min Rain = 0
KME1 290136Z 17004KT 27/17 A2972 RMK A01 T02670172  RH  056%=      5-min Rain = 0
KME1 290137Z 18004KT 27/17 A2972 RMK A01 T02670173  RH  056%=      5-min Rain = 0
KME1 290138Z 18004KT 27/17 A2972 RMK A01 T02660173  RH  057%=      5-min Rain = 0
KME1 290139Z 18004KT 27/17 A2972 RMK A01 T02660174  RH  057%=      5-min Rain = 0
KME1 290140Z 18004KT 27/18 A2972 RMK A01 T02660175  RH  057%=      5-min Rain = 0
KME1 290141Z 18003KT 27/18 A2972 RMK A01 T02650176  RH  058%=      5-min Rain = 0
KME1 290142Z 18003KT 27/18 A2972 RMK A01 T02650176  RH  058%=      5-min Rain = 0
KME1 290143Z 18003KT 26/18 A2972 RMK A01 T02630178  RH  059%=      5-min Rain = 0
KME1 290144Z 19003KT 26/18 A2972 RMK A01 T02620179  RH  060%=      5-min Rain = 0
KME1 290145Z 19003KT 26/18 A2972 RMK A01 T02610179  RH  060%=      5-min Rain = 0
KME1 290146Z 18003KT 26/18 A2973 RMK A01 T02600179  RH  061%=      5-min Rain = 0
KME1 290147Z 18004KT 26/18 A2973 RMK A01 T02590179  RH  062%=      5-min Rain = 0
KME1 290148Z 18003KT 26/18 A2973 RMK A01 T02580179  RH  062%=      5-min Rain = 0
KME1 290149Z 18003KT 26/18 A2973 RMK A01 T02570179  RH  062%=      5-min Rain = 0
KME1 290150Z 18003KT 26/18 A2972 RMK A01 T02570181  RH  063%=      5-min Rain = 0
KME1 290151Z 17003KT 26/18 A2972 RMK A01 T02560181  RH  063%=      5-min Rain = 0
KME1 290152Z 17002KT 26/18 A2972 RMK A01 T02550181  RH  063%=      5-min Rain = 0
KME1 290153Z 17002KT 26/18 A2973 RMK A01 T02550181  RH  064%=      5-min Rain = 0
KME1 290154Z 17002KT 26/18 A2973 RMK A01 T02550181  RH  064%=      5-min Rain = 0
KME1 290155Z 17003KT 25/18 A2973 RMK A01 T02540177  RH  062%=      5-min Rain = 0
KME1 290156Z 17002KT 25/18 A2973 RMK A01 T02540175  RH  062%=      5-min Rain = 0
KME1 290157Z 17003KT 25/18 A2972 RMK A01 T02540176  RH  062%=      5-min Rain = 0
KME1 290158Z 17003KT 25/18 A2972 RMK A01 T02540175  RH  062%=      5-min Rain = 0
KME1 290159Z 17003KT 25/17 A2972 RMK A01 T02540173  RH  061%=      5-min Rain = 0
KME1 290200Z 18003KT 26/17 A2972 RMK A01 T02550174  RH  061%=      5-min Rain = 0
KME1 290201Z 18003KT 26/18 A2972 RMK A01 T02560175  RH  061%=      5-min Rain = 0
KME1 290202Z 18003KT 26/17 A2973 RMK A01 T02560173  RH  060%=      5-min Rain = 0
KME1 290203Z 19003KT 26/17 A2973 RMK A01 T02560174  RH  060%=      5-min Rain = 0
KME1 290204Z 18003KT 26/17 A2973 RMK A01 T02570174  RH  060%=      5-min Rain = 0
KME1 290205Z 18003KT 26/17 A2973 RMK A01 T02570174  RH  060%=      5-min Rain = 0
KME1 290206Z 18003KT 26/18 A2973 RMK A01 T02570176  RH  061%=      5-min Rain = 0
KME1 290207Z 19003KT 26/18 A2973 RMK A01 T02570177  RH  061%=      5-min Rain = 0
KME1 290208Z 19003KT 26/18 A2973 RMK A01 T02560177  RH  062%=      5-min Rain = 0
KME1 290209Z 19003KT 26/18 A2973 RMK A01 T02550178  RH  062%=      5-min Rain = 0
KME1 290210Z 18003KT 25/18 A2973 RMK A01 T02530178  RH  063%=      5-min Rain = 0
KME1 290211Z 18004KT 25/18 A2973 RMK A01 T02510178  RH  064%=      5-min Rain = 0
KME1 290212Z 18004KT 25/18 A2973 RMK A01 T02500177  RH  064%=      5-min Rain = 0
KME1 290213Z 17004KT 25/18 A2973 RMK A01 T02500178  RH  064%=      5-min Rain = 0
KME1 290214Z 17005KT 25/18 A2973 RMK A01 T02490178  RH  064%=      5-min Rain = 0
KME1 290215Z 18004KT 25/18 A2973 RMK A01 T02490179  RH  065%=      5-min Rain = 0
KME1 290216Z 18004KT 25/18 A2973 RMK A01 T02480180  RH  066%=      5-min Rain = 0
KME1 290217Z 17004KT 25/18 A2973 RMK A01 T02480179  RH  065%=      5-min Rain = 0
KME1 290218Z 18004KT 25/18 A2973 RMK A01 T02480178  RH  065%=      5-min Rain = 0
KME1 290219Z 18004KT 25/18 A2973 RMK A01 T02480177  RH  065%=      5-min Rain = 0
KME1 290220Z 17003KT 25/18 A2973 RMK A01 T02480177  RH  065%=      5-min Rain = 0
KME1 290221Z 17003KT 25/18 A2973 RMK A01 T02480178  RH  065%=      5-min Rain = 0
KME1 290222Z 17005KT 25/18 A2973 RMK A01 T02480177  RH  065%=      5-min Rain = 0
KME1 290223Z 17004KT 25/18 A2973 RMK A01 T02480176  RH  064%=      5-min Rain = 0
KME1 290224Z 18004KT 25/18 A2973 RMK A01 T02480177  RH  065%=      5-min Rain = 0
KME1 290225Z 17004KT 25/18 A2973 RMK A01 T02480177  RH  065%=      5-min Rain = 0
KME1 290226Z 16004KT 25/18 A2973 RMK A01 T02470177  RH  065%=      5-min Rain = 0
KME1 290227Z 16004KT 25/18 A2973 RMK A01 T02470178  RH  065%=      5-min Rain = 0
KME1 290228Z 16004KT 25/18 A2973 RMK A01 T02480179  RH  065%=      5-min Rain = 0
KME1 290229Z 16005KT 25/18 A2974 RMK A01 T02480180  RH  066%=      5-min Rain = 0
KME1 290230Z 16005KT 25/18 A2974 RMK A01 T02480182  RH  067%=      5-min Rain = 0
KME1 290231Z 16005KT 25/18 A2974 RMK A01 T02470182  RH  067%=      5-min Rain = 0
KME1 290232Z 16005KT 25/18 A2974 RMK A01 T02460183  RH  068%=      5-min Rain = 0
KME1 290233Z 16006KT 25/18 A2974 RMK A01 T02460184  RH  068%=      5-min Rain = 0
KME1 290234Z 16005KT 25/19 A2974 RMK A01 T02460185  RH  069%=      5-min Rain = 0
KME1 290235Z 16007KT 25/19 A2974 RMK A01 T02470185  RH  068%=      5-min Rain = 0
KME1 290236Z 16006KT 25/19 A2974 RMK A01 T02480186  RH  068%=      5-min Rain = 0
KME1 290237Z 16006KT 25/19 A2974 RMK A01 T02490187  RH  068%=      5-min Rain = 0
KME1 290238Z 16006KT 25/19 A2974 RMK A01 T02500188  RH  068%=      5-min Rain = 0
KME1 290239Z 16007KT 25/19 A2974 RMK A01 T02500188  RH  068%=      5-min Rain = 0
KME1 290240Z 16007KT 25/19 A2974 RMK A01 T02520188  RH  068%=      5-min Rain = 0
KME1 290241Z 16007KT 25/19 A2974 RMK A01 T02530188  RH  067%=      5-min Rain = 0
KME1 290242Z 16007KT 26/19 A2974 RMK A01 T02550188  RH  067%=      5-min Rain = 0
KME1 290243Z 16007KT 26/19 A2974 RMK A01 T02560189  RH  066%=      5-min Rain = 0
KME1 290244Z 16008KT 26/19 A2974 RMK A01 T02570189  RH  066%=      5-min Rain = 0
KME1 290245Z 16008KT 26/19 A2974 RMK A01 T02570189  RH  066%=      5-min Rain = 0
KME1 290246Z 16007KT 26/19 A2974 RMK A01 T02570189  RH  066%=      5-min Rain = 0
KME1 290247Z 17007KT 26/19 A2974 RMK A01 T02570190  RH  066%=      5-min Rain = 0
KME1 290248Z 16010KT 26/19 A2974 RMK A01 T02570189  RH  066%=      5-min Rain = 0
KME1 290249Z 17008KT 26/19 A2974 RMK A01 T02570189  RH  066%=      5-min Rain = 0
KME1 290250Z 16007KT 26/19 A2974 RMK A01 T02580189  RH  066%=      5-min Rain = 0
KME1 290251Z 16008KT 26/19 A2974 RMK A01 T02580190  RH  066%=      5-min Rain = 0
KME1 290252Z 16007KT 26/19 A2974 RMK A01 T02570190  RH  066%=      5-min Rain = 0
KME1 290253Z 16008KT 26/19 A2974 RMK A01 T02570189  RH  066%=      5-min Rain = 0
KME1 290254Z 16008KT 26/19 A2974 RMK A01 T02570190  RH  066%=      5-min Rain = 0
KME1 290255Z 16008KT 26/19 A2974 RMK A01 T02570189  RH  066%=      5-min Rain = 0
KME1 290256Z 16007KT 26/19 A2974 RMK A01 T02560189  RH  066%=      5-min Rain = 0
KME1 290257Z 16007KT 26/19 A2974 RMK A01 T02560189  RH  066%=      5-min Rain = 0
KME1 290258Z 16007KT 26/19 A2975 RMK A01 T02560190  RH  067%=      5-min Rain = 0
KME1 290259Z 16007KT 26/19 A2975 RMK A01 T02560190  RH  067%=      5-min Rain = 0
KME1 290300Z 16007KT 26/19 A2975 RMK A01 T02560190  RH  067%=      5-min Rain = 0
KME1 290301Z 16008KT 26/19 A2975 RMK A01 T02550190  RH  067%=      5-min Rain = 0
KME1 290302Z 16008KT 26/19 A2975 RMK A01 T02550189  RH  067%=      5-min Rain = 0
KME1 290303Z 16007KT 26/19 A2975 RMK A01 T02550189  RH  067%=      5-min Rain = 0
KME1 290304Z 15008KT 26/19 A2975 RMK A01 T02550189  RH  067%=      5-min Rain = 0
KME1 290305Z 15008KT 26/19 A2975 RMK A01 T02550189  RH  067%=      5-min Rain = 0
KME1 290306Z 16007KT 26/19 A2975 RMK A01 T02550189  RH  067%=      5-min Rain = 0
KME1 290307Z 15008KT 26/19 A2975 RMK A01 T02550189  RH  067%=      5-min Rain = 0
KME1 290308Z 15009KT 26/19 A2975 RMK A01 T02550189  RH  067%=      5-min Rain = 0
KME1 290309Z 15008KT 25/19 A2975 RMK A01 T02540189  RH  067%=      5-min Rain = 0
KME1 290310Z 15010KT 25/19 A2975 RMK A01 T02540190  RH  067%=      5-min Rain = 0
KME1 290311Z 15008KT 25/19 A2975 RMK A01 T02540189  RH  067%=      5-min Rain = 0
KME1 290312Z 15010KT 25/19 A2975 RMK A01 T02540189  RH  067%=      5-min Rain = 0
KME1 290313Z 16009KT 26/19 A2975 RMK A01 T02550189  RH  067%=      5-min Rain = 0
KME1 290314Z 15010KT 26/19 A2975 RMK A01 T02550189  RH  067%=      5-min Rain = 0
KME1 290315Z 15009KT 26/19 A2975 RMK A01 T02550190  RH  067%=      5-min Rain = 0
KME1 290316Z 15008KT 25/19 A2975 RMK A01 T02540190  RH  067%=      5-min Rain = 0
KME1 290317Z 15008KT 25/19 A2975 RMK A01 T02540190  RH  068%=      5-min Rain = 0
KME1 290318Z 16008KT 25/19 A2975 RMK A01 T02540190  RH  068%=      5-min Rain = 0
KME1 290319Z 15007KT 25/19 A2975 RMK A01 T02540190  RH  068%=      5-min Rain = 0
KME1 290320Z 16007KT 25/19 A2975 RMK A01 T02530190  RH  068%=      5-min Rain = 0
KME1 290321Z 16010KT 25/19 A2975 RMK A01 T02530190  RH  068%=      5-min Rain = 0
KME1 290322Z 16009KT 25/19 A2975 RMK A01 T02530189  RH  068%=      5-min Rain = 0
KME1 290323Z 15008KT 25/19 A2975 RMK A01 T02540190  RH  067%=      5-min Rain = 0
KME1 290324Z 16007KT 26/19 A2975 RMK A01 T02550190  RH  068%=      5-min Rain = 0
KME1 290325Z 16007KT 25/19 A2975 RMK A01 T02540191  RH  068%=      5-min Rain = 0
KME1 290326Z 16009KT 25/19 A2975 RMK A01 T02540191  RH  068%=      5-min Rain = 0
KME1 290327Z 16008KT 25/19 A2975 RMK A01 T02530191  RH  068%=      5-min Rain = 0
KME1 290328Z 16009KT 25/19 A2975 RMK A01 T02530191  RH  068%=      5-min Rain = 0
KME1 290329Z 15010KT 25/19 A2976 RMK A01 T02530191  RH  068%=      5-min Rain = 0
KME1 290330Z 15008KT 25/19 A2976 RMK A01 T02530190  RH  068%=      5-min Rain = 0
KME1 290331Z 15010KT 25/19 A2976 RMK A01 T02540191  RH  068%=      5-min Rain = 0
KME1 290332Z 16009KT 25/19 A2976 RMK A01 T02530190  RH  068%=      5-min Rain = 0
KME1 290333Z 16009KT 25/19 A2976 RMK A01 T02540191  RH  068%=      5-min Rain = 0
KME1 290334Z 16009KT 25/19 A2976 RMK A01 T02540191  RH  068%=      5-min Rain = 0
KME1 290335Z 17011KT 25/19 A2976 RMK A01 T02540191  RH  068%=      5-min Rain = 0
KME1 290336Z 16009KT 26/19 A2976 RMK A01 T02550191  RH  068%=      5-min Rain = 0
KME1 290337Z 17010KT 25/19 A2976 RMK A01 T02540191  RH  068%=      5-min Rain = 0
KME1 290338Z 17009KT 25/19 A2976 RMK A01 T02540192  RH  068%=      5-min Rain = 0
KME1 290339Z 16008KT 25/19 A2976 RMK A01 T02540192  RH  068%=      5-min Rain = 0
KME1 290340Z 16008KT 25/19 A2976 RMK A01 T02530191  RH  069%=      5-min Rain = 0
KME1 290341Z 16009KT 25/19 A2976 RMK A01 T02530191  RH  069%=      5-min Rain = 0
KME1 290342Z 17007KT 25/19 A2976 RMK A01 T02530191  RH  068%=      5-min Rain = 0
KME1 290343Z 16008KT 25/19 A2976 RMK A01 T02530192  RH  069%=      5-min Rain = 0
KME1 290344Z 16009KT 25/19 A2976 RMK A01 T02520191  RH  069%=      5-min Rain = 0
KME1 290345Z 16010KT 25/19 A2976 RMK A01 T02520191  RH  069%=      5-min Rain = 0
KME1 290346Z 17010G15KT 25/19 A2976 RMK A01 T02520191  RH  069%=      5-min Rain = 0
KME1 290347Z 17009KT 25/19 A2976 RMK A01 T02530191  RH  069%=      5-min Rain = 0
KME1 290348Z 17009KT 25/19 A2976 RMK A01 T02530191  RH  069%=      5-min Rain = 0
KME1 290349Z 17008KT 25/19 A2976 RMK A01 T02530191  RH  069%=      5-min Rain = 0
KME1 290350Z 17008KT 25/19 A2976 RMK A01 T02530192  RH  069%=      5-min Rain = 0
KME1 290351Z 16009KT 25/19 A2976 RMK A01 T02530192  RH  069%=      5-min Rain = 0
KME1 290352Z 17007KT 25/19 A2976 RMK A01 T02520192  RH  069%=      5-min Rain = 0
KME1 290353Z 17009KT 25/19 A2976 RMK A01 T02520192  RH  070%=      5-min Rain = 0
KME1 290354Z 17011KT 25/19 A2976 RMK A01 T02510191  RH  070%=      5-min Rain = 0
KME1 290355Z 17007KT 25/19 A2976 RMK A01 T02510191  RH  069%=      5-min Rain = 0
KME1 290356Z 17007KT 25/19 A2976 RMK A01 T02510191  RH  069%=      5-min Rain = 0
KME1 290357Z 17009KT 25/19 A2976 RMK A01 T02510191  RH  069%=      5-min Rain = 0
KME1 290358Z 16009KT 25/19 A2976 RMK A01 T02510191  RH  069%=      5-min Rain = 0
KME1 290359Z 17007KT 25/19 A2976 RMK A01 T02510192  RH  070%=      5-min Rain = 0
KME1 290400Z 17008KT 25/19 A2976 RMK A01 T02510192  RH  070%=      5-min Rain = 0
KME1 290401Z 17007KT 25/19 A2976 RMK A01 T02500192  RH  070%=      5-min Rain = 0
KME1 290402Z 18007KT 25/19 A2976 RMK A01 T02490192  RH  070%=      5-min Rain = 0
KME1 290403Z 17006KT 25/19 A2977 RMK A01 T02490192  RH  071%=      5-min Rain = 0
KME1 290404Z 17006KT 25/19 A2977 RMK A01 T02480192  RH  071%=      5-min Rain = 0
KME1 290405Z 17006KT 25/19 A2977 RMK A01 T02470192  RH  072%=      5-min Rain = 0
KME1 290406Z 16007KT 25/19 A2977 RMK A01 T02460192  RH  072%=      5-min Rain = 0
KME1 290407Z 17007KT 25/19 A2977 RMK A01 T02460191  RH  071%=      5-min Rain = 0
KME1 290408Z 17007KT 25/19 A2977 RMK A01 T02470192  RH  071%=      5-min Rain = 0
KME1 290409Z 16007KT 25/19 A2977 RMK A01 T02470192  RH  071%=      5-min Rain = 0
KME1 290410Z 17007KT 25/19 A2977 RMK A01 T02460192  RH  072%=      5-min Rain = 0
KME1 290411Z 16008KT 25/19 A2977 RMK A01 T02460191  RH  072%=      5-min Rain = 0
KME1 290412Z 16008KT 25/19 A2977 RMK A01 T02470191  RH  071%=      5-min Rain = 0
KME1 290413Z 16007KT 25/19 A2977 RMK A01 T02470191  RH  071%=      5-min Rain = 0
KME1 290414Z 16007KT 25/19 A2976 RMK A01 T02470192  RH  071%=      5-min Rain = 0
KME1 290415Z 16006KT 25/19 A2976 RMK A01 T02460191  RH  072%=      5-min Rain = 0
KME1 290416Z 16008KT 25/19 A2976 RMK A01 T02460191  RH  072%=      5-min Rain = 0
KME1 290417Z 16009KT 25/19 A2976 RMK A01 T02460191  RH  071%=      5-min Rain = 0
KME1 290418Z 16009KT 25/19 A2976 RMK A01 T02460190  RH  071%=      5-min Rain = 0
KME1 290419Z 16008KT 25/19 A2976 RMK A01 T02470190  RH  071%=      5-min Rain = 0
KME1 290420Z 16006KT 25/19 A2976 RMK A01 T02470191  RH  071%=      5-min Rain = 0
KME1 290421Z 17006KT 25/19 A2976 RMK A01 T02470191  RH  071%=      5-min Rain = 0
KME1 290422Z 16007KT 25/19 A2976 RMK A01 T02460191  RH  071%=      5-min Rain = 0
KME1 290423Z 17008KT 25/19 A2976 RMK A01 T02460191  RH  071%=      5-min Rain = 0
KME1 290424Z 17008KT 25/19 A2976 RMK A01 T02450190  RH  071%=      5-min Rain = 0
KME1 290425Z 16007KT 25/19 A2976 RMK A01 T02450191  RH  071%=      5-min Rain = 0
KME1 290426Z 16008KT 25/19 A2976 RMK A01 T02450191  RH  072%=      5-min Rain = 0
KME1 290427Z 16008KT 24/19 A2976 RMK A01 T02440190  RH  072%=      5-min Rain = 0
KME1 290428Z 16008KT 25/19 A2976 RMK A01 T02450190  RH  071%=      5-min Rain = 0
KME1 290429Z 16008KT 25/19 A2976 RMK A01 T02450190  RH  071%=      5-min Rain = 0
KME1 290430Z 16008KT 25/19 A2976 RMK A01 T02450190  RH  071%=      5-min Rain = 0
KME1 290431Z 16007KT 25/19 A2976 RMK A01 T02450190  RH  071%=      5-min Rain = 0
KME1 290432Z 16008KT 25/19 A2976 RMK A01 T02450189  RH  071%=      5-min Rain = 0
KME1 290433Z 16006KT 25/19 A2976 RMK A01 T02460190  RH  071%=      5-min Rain = 0
KME1 290434Z 16007KT 25/19 A2976 RMK A01 T02460190  RH  071%=      5-min Rain = 0
KME1 290435Z 16007KT 25/19 A2976 RMK A01 T02450190  RH  071%=      5-min Rain = 0
KME1 290436Z 16008KT 25/19 A2976 RMK A01 T02450190  RH  071%=      5-min Rain = 0
KME1 290437Z 16008KT 25/19 A2976 RMK A01 T02450190  RH  071%=      5-min Rain = 0
KME1 290438Z 16008KT 25/19 A2976 RMK A01 T02450191  RH  072%=      5-min Rain = 0
KME1 290439Z 16010KT 24/19 A2976 RMK A01 T02440189  RH  071%=      5-min Rain = 0
KME1 290440Z 16007KT 25/19 A2976 RMK A01 T02450189  RH  071%=      5-min Rain = 0
KME1 290441Z 16008KT 25/19 A2976 RMK A01 T02460190  RH  071%=      5-min Rain = 0
KME1 290442Z 16009KT 25/19 A2976 RMK A01 T02450190  RH  071%=      5-min Rain = 0
KME1 290443Z 16009KT 25/19 A2976 RMK A01 T02450190  RH  071%=      5-min Rain = 0
KME1 290444Z 16008KT 25/19 A2976 RMK A01 T02450190  RH  071%=      5-min Rain = 0
KME1 290445Z 16006KT 25/19 A2976 RMK A01 T02450190  RH  071%=      5-min Rain = 0
KME1 290446Z 16008KT 25/19 A2976 RMK A01 T02450190  RH  072%=      5-min Rain = 0
KME1 290447Z 16009KT 24/19 A2976 RMK A01 T02440190  RH  072%=      5-min Rain = 0
KME1 290448Z 16008KT 24/19 A2976 RMK A01 T02440190  RH  072%=      5-min Rain = 0
KME1 290449Z 16009KT 24/19 A2976 RMK A01 T02440190  RH  072%=      5-min Rain = 0
KME1 290450Z 16010KT 24/19 A2976 RMK A01 T02430190  RH  072%=      5-min Rain = 0
KME1 290451Z 16009KT 24/19 A2976 RMK A01 T02440189  RH  072%=      5-min Rain = 0
KME1 290452Z 16009KT 24/19 A2976 RMK A01 T02440189  RH  072%=      5-min Rain = 0
KME1 290453Z 16010KT 24/19 A2976 RMK A01 T02440190  RH  072%=      5-min Rain = 0
KME1 290454Z 16010KT 24/19 A2976 RMK A01 T02440189  RH  071%=      5-min Rain = 0
KME1 290455Z 16011KT 24/19 A2976 RMK A01 T02440189  RH  071%=      5-min Rain = 0
KME1 290456Z 16009KT 25/19 A2976 RMK A01 T02450189  RH  071%=      5-min Rain = 0
KME1 290457Z 17008KT 25/19 A2976 RMK A01 T02450190  RH  072%=      5-min Rain = 0
KME1 290458Z 16007KT 24/19 A2976 RMK A01 T02430190  RH  072%=      5-min Rain = 0
KME1 290459Z 16009KT 24/19 A2976 RMK A01 T02420190  RH  073%=      5-min Rain = 0

Page generated in 0.1255 seconds.